<?xml version="1.0" encoding="UTF-8" standalone="no" ?>
<gpx xmlns="http://www.topografix.com/GPX/1/1" xmlns:xsi="http://www.w3.org/2001/XMLSchema-instance" xsi:schemaLocation="http://www.topografix.com/GPX/1/1 http://www.topografix.com/GPX/1/1/gpx.xsd" version="1.1" creator="VisuGPX - https://www.visugpx.com">
  <metadata>
    <name>VTT venelles</name>
    <desc><![CDATA[VTT sur venelles]]></desc>
  </metadata>
  <trk>
    <name><![CDATA[VenellesChinoisJéjé on GPSies.com]]></name>
    <trkseg>
      <trkpt lat="43.59681" lon="5.49787">
        <ele>411</ele>
        <time>2011-03-17T12:25:37Z</time>
      </trkpt>
      <trkpt lat="43.5968" lon="5.49837">
        <ele>408</ele>
        <time>2011-03-17T12:26:07Z</time>
      </trkpt>
      <trkpt lat="43.59696" lon="5.49859">
        <ele>407</ele>
        <time>2011-03-17T12:26:16Z</time>
      </trkpt>
      <trkpt lat="43.59703" lon="5.49889">
        <ele>407</ele>
        <time>2011-03-17T12:26:25Z</time>
      </trkpt>
      <trkpt lat="43.5971" lon="5.49917">
        <ele>407</ele>
        <time>2011-03-17T12:26:33Z</time>
      </trkpt>
      <trkpt lat="43.59724" lon="5.49949">
        <ele>407</ele>
        <time>2011-03-17T12:26:42Z</time>
      </trkpt>
      <trkpt lat="43.59732" lon="5.49984">
        <ele>407</ele>
        <time>2011-03-17T12:26:51Z</time>
      </trkpt>
      <trkpt lat="43.59738" lon="5.50016">
        <ele>407</ele>
        <time>2011-03-17T12:26:59Z</time>
      </trkpt>
      <trkpt lat="43.59742" lon="5.50051">
        <ele>407</ele>
        <time>2011-03-17T12:27:08Z</time>
      </trkpt>
      <trkpt lat="43.59749" lon="5.50076">
        <ele>407</ele>
        <time>2011-03-17T12:27:17Z</time>
      </trkpt>
      <trkpt lat="43.59757" lon="5.50104">
        <ele>407</ele>
        <time>2011-03-17T12:27:25Z</time>
      </trkpt>
      <trkpt lat="43.59765" lon="5.50135">
        <ele>407</ele>
        <time>2011-03-17T12:27:34Z</time>
      </trkpt>
      <trkpt lat="43.59778" lon="5.50164">
        <ele>407</ele>
        <time>2011-03-17T12:27:43Z</time>
      </trkpt>
      <trkpt lat="43.59778" lon="5.50196">
        <ele>407</ele>
        <time>2011-03-17T12:27:52Z</time>
      </trkpt>
      <trkpt lat="43.59766" lon="5.50224">
        <ele>407</ele>
        <time>2011-03-17T12:28:00Z</time>
      </trkpt>
      <trkpt lat="43.59752" lon="5.50251">
        <ele>409</ele>
        <time>2011-03-17T12:28:09Z</time>
      </trkpt>
      <trkpt lat="43.59737" lon="5.50274">
        <ele>410</ele>
        <time>2011-03-17T12:28:18Z</time>
      </trkpt>
      <trkpt lat="43.59726" lon="5.50297">
        <ele>411</ele>
        <time>2011-03-17T12:28:26Z</time>
      </trkpt>
      <trkpt lat="43.59718" lon="5.50319">
        <ele>413</ele>
        <time>2011-03-17T12:28:35Z</time>
      </trkpt>
      <trkpt lat="43.59705" lon="5.50332">
        <ele>415</ele>
        <time>2011-03-17T12:28:44Z</time>
      </trkpt>
      <trkpt lat="43.59697" lon="5.50344">
        <ele>419</ele>
        <time>2011-03-17T12:28:53Z</time>
      </trkpt>
      <trkpt lat="43.59687" lon="5.5036">
        <ele>423</ele>
        <time>2011-03-17T12:29:05Z</time>
      </trkpt>
      <trkpt lat="43.59678" lon="5.50378">
        <ele>424</ele>
        <time>2011-03-17T12:29:14Z</time>
      </trkpt>
      <trkpt lat="43.59675" lon="5.50406">
        <ele>429</ele>
        <time>2011-03-17T12:29:23Z</time>
      </trkpt>
      <trkpt lat="43.59687" lon="5.50427">
        <ele>429</ele>
        <time>2011-03-17T12:29:31Z</time>
      </trkpt>
      <trkpt lat="43.59699" lon="5.50448">
        <ele>427</ele>
        <time>2011-03-17T12:29:40Z</time>
      </trkpt>
      <trkpt lat="43.59708" lon="5.50473">
        <ele>426</ele>
        <time>2011-03-17T12:29:49Z</time>
      </trkpt>
      <trkpt lat="43.59715" lon="5.50492">
        <ele>425</ele>
        <time>2011-03-17T12:29:57Z</time>
      </trkpt>
      <trkpt lat="43.59712" lon="5.50514">
        <ele>423</ele>
        <time>2011-03-17T12:30:31Z</time>
      </trkpt>
      <trkpt lat="43.59687" lon="5.50537">
        <ele>423</ele>
        <time>2011-03-17T12:30:40Z</time>
      </trkpt>
      <trkpt lat="43.59644" lon="5.50583">
        <ele>418</ele>
        <time>2011-03-17T12:30:48Z</time>
      </trkpt>
      <trkpt lat="43.59604" lon="5.50596">
        <ele>409</ele>
        <time>2011-03-17T12:30:57Z</time>
      </trkpt>
      <trkpt lat="43.59566" lon="5.50586">
        <ele>401</ele>
        <time>2011-03-17T12:31:06Z</time>
      </trkpt>
      <trkpt lat="43.59513" lon="5.50577">
        <ele>394</ele>
        <time>2011-03-17T12:31:14Z</time>
      </trkpt>
      <trkpt lat="43.59462" lon="5.50572">
        <ele>388</ele>
        <time>2011-03-17T12:31:23Z</time>
      </trkpt>
      <trkpt lat="43.59404" lon="5.50575">
        <ele>379</ele>
        <time>2011-03-17T12:31:32Z</time>
      </trkpt>
      <trkpt lat="43.59367" lon="5.5058">
        <ele>378</ele>
        <time>2011-03-17T12:31:41Z</time>
      </trkpt>
      <trkpt lat="43.59336" lon="5.50581">
        <ele>377</ele>
        <time>2011-03-17T12:31:49Z</time>
      </trkpt>
      <trkpt lat="43.59311" lon="5.50582">
        <ele>377</ele>
        <time>2011-03-17T12:31:58Z</time>
      </trkpt>
      <trkpt lat="43.59291" lon="5.50586">
        <ele>377</ele>
        <time>2011-03-17T12:32:07Z</time>
      </trkpt>
      <trkpt lat="43.59248" lon="5.50591">
        <ele>377</ele>
        <time>2011-03-17T12:32:15Z</time>
      </trkpt>
      <trkpt lat="43.59196" lon="5.50593">
        <ele>377</ele>
        <time>2011-03-17T12:32:24Z</time>
      </trkpt>
      <trkpt lat="43.59134" lon="5.50598">
        <ele>368</ele>
        <time>2011-03-17T12:32:33Z</time>
      </trkpt>
      <trkpt lat="43.59092" lon="5.50596">
        <ele>357</ele>
        <time>2011-03-17T12:32:41Z</time>
      </trkpt>
      <trkpt lat="43.59073" lon="5.50598">
        <ele>340</ele>
        <time>2011-03-17T12:32:55Z</time>
      </trkpt>
      <trkpt lat="43.59046" lon="5.50612">
        <ele>338</ele>
        <time>2011-03-17T12:33:04Z</time>
      </trkpt>
      <trkpt lat="43.5904" lon="5.50652">
        <ele>333</ele>
        <time>2011-03-17T12:33:13Z</time>
      </trkpt>
      <trkpt lat="43.59029" lon="5.50697">
        <ele>332</ele>
        <time>2011-03-17T12:33:21Z</time>
      </trkpt>
      <trkpt lat="43.59011" lon="5.50739">
        <ele>330</ele>
        <time>2011-03-17T12:33:30Z</time>
      </trkpt>
      <trkpt lat="43.58986" lon="5.50771">
        <ele>325</ele>
        <time>2011-03-17T12:33:39Z</time>
      </trkpt>
      <trkpt lat="43.5897" lon="5.50798">
        <ele>323</ele>
        <time>2011-03-17T12:33:47Z</time>
      </trkpt>
      <trkpt lat="43.5895" lon="5.50824">
        <ele>323</ele>
        <time>2011-03-17T12:33:58Z</time>
      </trkpt>
      <trkpt lat="43.58945" lon="5.5086">
        <ele>323</ele>
        <time>2011-03-17T12:34:07Z</time>
      </trkpt>
      <trkpt lat="43.58941" lon="5.50888">
        <ele>323</ele>
        <time>2011-03-17T12:34:15Z</time>
      </trkpt>
      <trkpt lat="43.58928" lon="5.50884">
        <ele>322</ele>
        <time>2011-03-17T12:34:34Z</time>
      </trkpt>
      <trkpt lat="43.5891" lon="5.50906">
        <ele>322</ele>
        <time>2011-03-17T12:34:43Z</time>
      </trkpt>
      <trkpt lat="43.58914" lon="5.50936">
        <ele>322</ele>
        <time>2011-03-17T12:34:51Z</time>
      </trkpt>
      <trkpt lat="43.589" lon="5.50961">
        <ele>322</ele>
        <time>2011-03-17T12:35:00Z</time>
      </trkpt>
      <trkpt lat="43.58875" lon="5.50975">
        <ele>322</ele>
        <time>2011-03-17T12:35:09Z</time>
      </trkpt>
      <trkpt lat="43.58854" lon="5.5099">
        <ele>322</ele>
        <time>2011-03-17T12:35:18Z</time>
      </trkpt>
      <trkpt lat="43.58836" lon="5.51005">
        <ele>322</ele>
        <time>2011-03-17T12:35:26Z</time>
      </trkpt>
      <trkpt lat="43.5882" lon="5.5103">
        <ele>322</ele>
        <time>2011-03-17T12:35:35Z</time>
      </trkpt>
      <trkpt lat="43.58807" lon="5.51057">
        <ele>322</ele>
        <time>2011-03-17T12:35:44Z</time>
      </trkpt>
      <trkpt lat="43.58796" lon="5.51083">
        <ele>322</ele>
        <time>2011-03-17T12:35:52Z</time>
      </trkpt>
      <trkpt lat="43.58785" lon="5.51114">
        <ele>322</ele>
        <time>2011-03-17T12:36:01Z</time>
      </trkpt>
      <trkpt lat="43.58763" lon="5.51137">
        <ele>324</ele>
        <time>2011-03-17T12:36:10Z</time>
      </trkpt>
      <trkpt lat="43.5875" lon="5.51163">
        <ele>324</ele>
        <time>2011-03-17T12:36:18Z</time>
      </trkpt>
      <trkpt lat="43.58746" lon="5.51199">
        <ele>325</ele>
        <time>2011-03-17T12:36:27Z</time>
      </trkpt>
      <trkpt lat="43.58726" lon="5.51222">
        <ele>325</ele>
        <time>2011-03-17T12:36:35Z</time>
      </trkpt>
      <trkpt lat="43.58708" lon="5.51247">
        <ele>327</ele>
        <time>2011-03-17T12:36:45Z</time>
      </trkpt>
      <trkpt lat="43.5869" lon="5.51267">
        <ele>329</ele>
        <time>2011-03-17T12:36:53Z</time>
      </trkpt>
      <trkpt lat="43.58667" lon="5.51282">
        <ele>332</ele>
        <time>2011-03-17T12:37:02Z</time>
      </trkpt>
      <trkpt lat="43.58645" lon="5.51299">
        <ele>334</ele>
        <time>2011-03-17T12:37:11Z</time>
      </trkpt>
      <trkpt lat="43.58623" lon="5.51307">
        <ele>336</ele>
        <time>2011-03-17T12:37:19Z</time>
      </trkpt>
      <trkpt lat="43.58599" lon="5.51311">
        <ele>338</ele>
        <time>2011-03-17T12:37:28Z</time>
      </trkpt>
      <trkpt lat="43.58575" lon="5.51318">
        <ele>340</ele>
        <time>2011-03-17T12:37:37Z</time>
      </trkpt>
      <trkpt lat="43.58551" lon="5.51319">
        <ele>340</ele>
        <time>2011-03-17T12:37:45Z</time>
      </trkpt>
      <trkpt lat="43.58523" lon="5.51321">
        <ele>340</ele>
        <time>2011-03-17T12:37:54Z</time>
      </trkpt>
      <trkpt lat="43.58501" lon="5.51335">
        <ele>341</ele>
        <time>2011-03-17T12:38:03Z</time>
      </trkpt>
      <trkpt lat="43.58481" lon="5.51361">
        <ele>341</ele>
        <time>2011-03-17T12:38:11Z</time>
      </trkpt>
      <trkpt lat="43.58473" lon="5.51388">
        <ele>341</ele>
        <time>2011-03-17T12:38:20Z</time>
      </trkpt>
      <trkpt lat="43.58464" lon="5.5142">
        <ele>341</ele>
        <time>2011-03-17T12:38:28Z</time>
      </trkpt>
      <trkpt lat="43.58454" lon="5.51454">
        <ele>341</ele>
        <time>2011-03-17T12:38:38Z</time>
      </trkpt>
      <trkpt lat="43.58438" lon="5.51477">
        <ele>343</ele>
        <time>2011-03-17T12:38:45Z</time>
      </trkpt>
      <trkpt lat="43.58417" lon="5.515">
        <ele>346</ele>
        <time>2011-03-17T12:38:54Z</time>
      </trkpt>
      <trkpt lat="43.58394" lon="5.5152">
        <ele>346</ele>
        <time>2011-03-17T12:39:03Z</time>
      </trkpt>
      <trkpt lat="43.58375" lon="5.51544">
        <ele>347</ele>
        <time>2011-03-17T12:39:11Z</time>
      </trkpt>
      <trkpt lat="43.58354" lon="5.51568">
        <ele>348</ele>
        <time>2011-03-17T12:39:20Z</time>
      </trkpt>
      <trkpt lat="43.5833" lon="5.51593">
        <ele>349</ele>
        <time>2011-03-17T12:39:30Z</time>
      </trkpt>
      <trkpt lat="43.58312" lon="5.51604">
        <ele>351</ele>
        <time>2011-03-17T12:39:38Z</time>
      </trkpt>
      <trkpt lat="43.58293" lon="5.51592">
        <ele>353</ele>
        <time>2011-03-17T12:39:46Z</time>
      </trkpt>
      <trkpt lat="43.58285" lon="5.5158">
        <ele>356</ele>
        <time>2011-03-17T12:39:56Z</time>
      </trkpt>
      <trkpt lat="43.58287" lon="5.51557">
        <ele>358</ele>
        <time>2011-03-17T12:40:04Z</time>
      </trkpt>
      <trkpt lat="43.58284" lon="5.51541">
        <ele>361</ele>
        <time>2011-03-17T12:40:12Z</time>
      </trkpt>
      <trkpt lat="43.5828" lon="5.51525">
        <ele>363</ele>
        <time>2011-03-17T12:40:21Z</time>
      </trkpt>
      <trkpt lat="43.58269" lon="5.51508">
        <ele>366</ele>
        <time>2011-03-17T12:40:33Z</time>
      </trkpt>
      <trkpt lat="43.58261" lon="5.51493">
        <ele>368</ele>
        <time>2011-03-17T12:40:43Z</time>
      </trkpt>
      <trkpt lat="43.5825" lon="5.51476">
        <ele>369</ele>
        <time>2011-03-17T12:40:52Z</time>
      </trkpt>
      <trkpt lat="43.5824" lon="5.51458">
        <ele>370</ele>
        <time>2011-03-17T12:41:01Z</time>
      </trkpt>
      <trkpt lat="43.5823" lon="5.51442">
        <ele>371</ele>
        <time>2011-03-17T12:41:09Z</time>
      </trkpt>
      <trkpt lat="43.58219" lon="5.51423">
        <ele>372</ele>
        <time>2011-03-17T12:41:18Z</time>
      </trkpt>
      <trkpt lat="43.58207" lon="5.51405">
        <ele>374</ele>
        <time>2011-03-17T12:41:27Z</time>
      </trkpt>
      <trkpt lat="43.58196" lon="5.51385">
        <ele>375</ele>
        <time>2011-03-17T12:41:36Z</time>
      </trkpt>
      <trkpt lat="43.58184" lon="5.51367">
        <ele>377</ele>
        <time>2011-03-17T12:41:44Z</time>
      </trkpt>
      <trkpt lat="43.58154" lon="5.51318">
        <ele>377</ele>
        <time>2011-03-17T12:41:53Z</time>
      </trkpt>
      <trkpt lat="43.58119" lon="5.51263">
        <ele>377</ele>
        <time>2011-03-17T12:42:02Z</time>
      </trkpt>
      <trkpt lat="43.58106" lon="5.51239">
        <ele>377</ele>
        <time>2011-03-17T12:42:11Z</time>
      </trkpt>
      <trkpt lat="43.58093" lon="5.51217">
        <ele>378</ele>
        <time>2011-03-17T12:42:19Z</time>
      </trkpt>
      <trkpt lat="43.58079" lon="5.51192">
        <ele>381</ele>
        <time>2011-03-17T12:42:28Z</time>
      </trkpt>
      <trkpt lat="43.58068" lon="5.51144">
        <ele>381</ele>
        <time>2011-03-17T12:42:36Z</time>
      </trkpt>
      <trkpt lat="43.58022" lon="5.51112">
        <ele>377</ele>
        <time>2011-03-17T12:42:45Z</time>
      </trkpt>
      <trkpt lat="43.58018" lon="5.51071">
        <ele>374</ele>
        <time>2011-03-17T12:42:54Z</time>
      </trkpt>
      <trkpt lat="43.58027" lon="5.5105">
        <ele>374</ele>
        <time>2011-03-17T12:43:02Z</time>
      </trkpt>
      <trkpt lat="43.58035" lon="5.51025">
        <ele>374</ele>
        <time>2011-03-17T12:43:11Z</time>
      </trkpt>
      <trkpt lat="43.58045" lon="5.50998">
        <ele>374</ele>
        <time>2011-03-17T12:43:20Z</time>
      </trkpt>
      <trkpt lat="43.58044" lon="5.50975">
        <ele>374</ele>
        <time>2011-03-17T12:43:29Z</time>
      </trkpt>
      <trkpt lat="43.5803" lon="5.50973">
        <ele>374</ele>
        <time>2011-03-17T12:43:38Z</time>
      </trkpt>
      <trkpt lat="43.58012" lon="5.50981">
        <ele>378</ele>
        <time>2011-03-17T12:43:46Z</time>
      </trkpt>
      <trkpt lat="43.57995" lon="5.50996">
        <ele>382</ele>
        <time>2011-03-17T12:43:55Z</time>
      </trkpt>
      <trkpt lat="43.57982" lon="5.51005">
        <ele>384</ele>
        <time>2011-03-17T12:44:03Z</time>
      </trkpt>
      <trkpt lat="43.57969" lon="5.51019">
        <ele>387</ele>
        <time>2011-03-17T12:44:12Z</time>
      </trkpt>
      <trkpt lat="43.57957" lon="5.51034">
        <ele>387</ele>
        <time>2011-03-17T12:44:21Z</time>
      </trkpt>
      <trkpt lat="43.57945" lon="5.51046">
        <ele>389</ele>
        <time>2011-03-17T12:44:31Z</time>
      </trkpt>
      <trkpt lat="43.57931" lon="5.51054">
        <ele>391</ele>
        <time>2011-03-17T12:44:40Z</time>
      </trkpt>
      <trkpt lat="43.57923" lon="5.51061">
        <ele>395</ele>
        <time>2011-03-17T12:45:07Z</time>
      </trkpt>
      <trkpt lat="43.57908" lon="5.51072">
        <ele>400</ele>
        <time>2011-03-17T12:46:23Z</time>
      </trkpt>
      <trkpt lat="43.57886" lon="5.51095">
        <ele>400</ele>
        <time>2011-03-17T12:46:31Z</time>
      </trkpt>
      <trkpt lat="43.57867" lon="5.51127">
        <ele>400</ele>
        <time>2011-03-17T12:46:40Z</time>
      </trkpt>
      <trkpt lat="43.57847" lon="5.51181">
        <ele>399</ele>
        <time>2011-03-17T12:46:49Z</time>
      </trkpt>
      <trkpt lat="43.57834" lon="5.51223">
        <ele>398</ele>
        <time>2011-03-17T12:46:57Z</time>
      </trkpt>
      <trkpt lat="43.57809" lon="5.51281">
        <ele>396</ele>
        <time>2011-03-17T12:47:06Z</time>
      </trkpt>
      <trkpt lat="43.57803" lon="5.51326">
        <ele>395</ele>
        <time>2011-03-17T12:47:15Z</time>
      </trkpt>
      <trkpt lat="43.57792" lon="5.5134">
        <ele>395</ele>
        <time>2011-03-17T12:47:23Z</time>
      </trkpt>
      <trkpt lat="43.57783" lon="5.51362">
        <ele>395</ele>
        <time>2011-03-17T12:47:32Z</time>
      </trkpt>
      <trkpt lat="43.57771" lon="5.51381">
        <ele>395</ele>
        <time>2011-03-17T12:47:41Z</time>
      </trkpt>
      <trkpt lat="43.57757" lon="5.51398">
        <ele>395</ele>
        <time>2011-03-17T12:47:50Z</time>
      </trkpt>
      <trkpt lat="43.57746" lon="5.51417">
        <ele>398</ele>
        <time>2011-03-17T12:47:58Z</time>
      </trkpt>
      <trkpt lat="43.5774" lon="5.51436">
        <ele>400</ele>
        <time>2011-03-17T12:48:07Z</time>
      </trkpt>
      <trkpt lat="43.5773" lon="5.51452">
        <ele>402</ele>
        <time>2011-03-17T12:48:17Z</time>
      </trkpt>
      <trkpt lat="43.57719" lon="5.51466">
        <ele>403</ele>
        <time>2011-03-17T12:48:25Z</time>
      </trkpt>
      <trkpt lat="43.57707" lon="5.51481">
        <ele>403</ele>
        <time>2011-03-17T12:48:34Z</time>
      </trkpt>
      <trkpt lat="43.57695" lon="5.51499">
        <ele>404</ele>
        <time>2011-03-17T12:48:43Z</time>
      </trkpt>
      <trkpt lat="43.57688" lon="5.51517">
        <ele>405</ele>
        <time>2011-03-17T12:48:51Z</time>
      </trkpt>
      <trkpt lat="43.57686" lon="5.51536">
        <ele>407</ele>
        <time>2011-03-17T12:49:00Z</time>
      </trkpt>
      <trkpt lat="43.57685" lon="5.51554">
        <ele>409</ele>
        <time>2011-03-17T12:49:09Z</time>
      </trkpt>
      <trkpt lat="43.57684" lon="5.51569">
        <ele>410</ele>
        <time>2011-03-17T12:49:17Z</time>
      </trkpt>
      <trkpt lat="43.57684" lon="5.51586">
        <ele>410</ele>
        <time>2011-03-17T12:49:26Z</time>
      </trkpt>
      <trkpt lat="43.57678" lon="5.51606">
        <ele>410</ele>
        <time>2011-03-17T12:49:35Z</time>
      </trkpt>
      <trkpt lat="43.57667" lon="5.51625">
        <ele>412</ele>
        <time>2011-03-17T12:49:44Z</time>
      </trkpt>
      <trkpt lat="43.57661" lon="5.51644">
        <ele>414</ele>
        <time>2011-03-17T12:49:52Z</time>
      </trkpt>
      <trkpt lat="43.57659" lon="5.51664">
        <ele>417</ele>
        <time>2011-03-17T12:50:01Z</time>
      </trkpt>
      <trkpt lat="43.57654" lon="5.51683">
        <ele>417</ele>
        <time>2011-03-17T12:50:10Z</time>
      </trkpt>
      <trkpt lat="43.57651" lon="5.51701">
        <ele>419</ele>
        <time>2011-03-17T12:50:18Z</time>
      </trkpt>
      <trkpt lat="43.5765" lon="5.51724">
        <ele>421</ele>
        <time>2011-03-17T12:50:27Z</time>
      </trkpt>
      <trkpt lat="43.57651" lon="5.51745">
        <ele>424</ele>
        <time>2011-03-17T12:50:36Z</time>
      </trkpt>
      <trkpt lat="43.57654" lon="5.51761">
        <ele>426</ele>
        <time>2011-03-17T12:50:44Z</time>
      </trkpt>
      <trkpt lat="43.57656" lon="5.51782">
        <ele>428</ele>
        <time>2011-03-17T12:50:53Z</time>
      </trkpt>
      <trkpt lat="43.57653" lon="5.51802">
        <ele>428</ele>
        <time>2011-03-17T12:51:02Z</time>
      </trkpt>
      <trkpt lat="43.57649" lon="5.5182">
        <ele>430</ele>
        <time>2011-03-17T12:51:11Z</time>
      </trkpt>
      <trkpt lat="43.57641" lon="5.51836">
        <ele>432</ele>
        <time>2011-03-17T12:51:19Z</time>
      </trkpt>
      <trkpt lat="43.57632" lon="5.51851">
        <ele>435</ele>
        <time>2011-03-17T12:51:28Z</time>
      </trkpt>
      <trkpt lat="43.5762" lon="5.51866">
        <ele>436</ele>
        <time>2011-03-17T12:51:38Z</time>
      </trkpt>
      <trkpt lat="43.57612" lon="5.51879">
        <ele>437</ele>
        <time>2011-03-17T12:51:46Z</time>
      </trkpt>
      <trkpt lat="43.57602" lon="5.51896">
        <ele>438</ele>
        <time>2011-03-17T12:51:56Z</time>
      </trkpt>
      <trkpt lat="43.57591" lon="5.51909">
        <ele>439</ele>
        <time>2011-03-17T12:52:05Z</time>
      </trkpt>
      <trkpt lat="43.57579" lon="5.51915">
        <ele>440</ele>
        <time>2011-03-17T12:52:13Z</time>
      </trkpt>
      <trkpt lat="43.57566" lon="5.51925">
        <ele>442</ele>
        <time>2011-03-17T12:52:22Z</time>
      </trkpt>
      <trkpt lat="43.57556" lon="5.51939">
        <ele>443</ele>
        <time>2011-03-17T12:52:31Z</time>
      </trkpt>
      <trkpt lat="43.57547" lon="5.51951">
        <ele>445</ele>
        <time>2011-03-17T12:52:39Z</time>
      </trkpt>
      <trkpt lat="43.57537" lon="5.51966">
        <ele>446</ele>
        <time>2011-03-17T12:52:48Z</time>
      </trkpt>
      <trkpt lat="43.57527" lon="5.51983">
        <ele>447</ele>
        <time>2011-03-17T12:52:58Z</time>
      </trkpt>
      <trkpt lat="43.57519" lon="5.51998">
        <ele>448</ele>
        <time>2011-03-17T12:53:07Z</time>
      </trkpt>
      <trkpt lat="43.57514" lon="5.52013">
        <ele>449</ele>
        <time>2011-03-17T12:53:15Z</time>
      </trkpt>
      <trkpt lat="43.5751" lon="5.52032">
        <ele>450</ele>
        <time>2011-03-17T12:53:24Z</time>
      </trkpt>
      <trkpt lat="43.57505" lon="5.52053">
        <ele>452</ele>
        <time>2011-03-17T12:53:33Z</time>
      </trkpt>
      <trkpt lat="43.57497" lon="5.52076">
        <ele>453</ele>
        <time>2011-03-17T12:53:41Z</time>
      </trkpt>
      <trkpt lat="43.57487" lon="5.52101">
        <ele>454</ele>
        <time>2011-03-17T12:53:50Z</time>
      </trkpt>
      <trkpt lat="43.57477" lon="5.52126">
        <ele>456</ele>
        <time>2011-03-17T12:53:59Z</time>
      </trkpt>
      <trkpt lat="43.57471" lon="5.52151">
        <ele>457</ele>
        <time>2011-03-17T12:54:07Z</time>
      </trkpt>
      <trkpt lat="43.57472" lon="5.52179">
        <ele>458</ele>
        <time>2011-03-17T12:54:16Z</time>
      </trkpt>
      <trkpt lat="43.57472" lon="5.52209">
        <ele>460</ele>
        <time>2011-03-17T12:54:25Z</time>
      </trkpt>
      <trkpt lat="43.57471" lon="5.5224">
        <ele>462</ele>
        <time>2011-03-17T12:54:34Z</time>
      </trkpt>
      <trkpt lat="43.57469" lon="5.52267">
        <ele>464</ele>
        <time>2011-03-17T12:54:42Z</time>
      </trkpt>
      <trkpt lat="43.57463" lon="5.52296">
        <ele>464</ele>
        <time>2011-03-17T12:54:51Z</time>
      </trkpt>
      <trkpt lat="43.57452" lon="5.52324">
        <ele>464</ele>
        <time>2011-03-17T12:55:00Z</time>
      </trkpt>
      <trkpt lat="43.57439" lon="5.52348">
        <ele>464</ele>
        <time>2011-03-17T12:55:08Z</time>
      </trkpt>
      <trkpt lat="43.57428" lon="5.52377">
        <ele>464</ele>
        <time>2011-03-17T12:55:17Z</time>
      </trkpt>
      <trkpt lat="43.57422" lon="5.5242">
        <ele>464</ele>
        <time>2011-03-17T12:55:26Z</time>
      </trkpt>
      <trkpt lat="43.57415" lon="5.52475">
        <ele>464</ele>
        <time>2011-03-17T12:55:34Z</time>
      </trkpt>
      <trkpt lat="43.57407" lon="5.52548">
        <ele>464</ele>
        <time>2011-03-17T12:55:43Z</time>
      </trkpt>
      <trkpt lat="43.57402" lon="5.5261">
        <ele>464</ele>
        <time>2011-03-17T12:55:52Z</time>
      </trkpt>
      <trkpt lat="43.57398" lon="5.52663">
        <ele>464</ele>
        <time>2011-03-17T12:56:01Z</time>
      </trkpt>
      <trkpt lat="43.57393" lon="5.52708">
        <ele>464</ele>
        <time>2011-03-17T12:56:09Z</time>
      </trkpt>
      <trkpt lat="43.57383" lon="5.52765">
        <ele>464</ele>
        <time>2011-03-17T12:56:18Z</time>
      </trkpt>
      <trkpt lat="43.57376" lon="5.5282">
        <ele>464</ele>
        <time>2011-03-17T12:56:27Z</time>
      </trkpt>
      <trkpt lat="43.57376" lon="5.52858">
        <ele>466</ele>
        <time>2011-03-17T12:56:35Z</time>
      </trkpt>
      <trkpt lat="43.57376" lon="5.5289">
        <ele>468</ele>
        <time>2011-03-17T12:56:44Z</time>
      </trkpt>
      <trkpt lat="43.57373" lon="5.52917">
        <ele>468</ele>
        <time>2011-03-17T12:56:53Z</time>
      </trkpt>
      <trkpt lat="43.57373" lon="5.52941">
        <ele>469</ele>
        <time>2011-03-17T12:57:01Z</time>
      </trkpt>
      <trkpt lat="43.57374" lon="5.52968">
        <ele>470</ele>
        <time>2011-03-17T12:57:10Z</time>
      </trkpt>
      <trkpt lat="43.57376" lon="5.52996">
        <ele>473</ele>
        <time>2011-03-17T12:57:19Z</time>
      </trkpt>
      <trkpt lat="43.57376" lon="5.53022">
        <ele>474</ele>
        <time>2011-03-17T12:57:27Z</time>
      </trkpt>
      <trkpt lat="43.57375" lon="5.53051">
        <ele>475</ele>
        <time>2011-03-17T12:57:36Z</time>
      </trkpt>
      <trkpt lat="43.57376" lon="5.53082">
        <ele>476</ele>
        <time>2011-03-17T12:57:45Z</time>
      </trkpt>
      <trkpt lat="43.57378" lon="5.53115">
        <ele>477</ele>
        <time>2011-03-17T12:57:54Z</time>
      </trkpt>
      <trkpt lat="43.57378" lon="5.53147">
        <ele>478</ele>
        <time>2011-03-17T12:58:02Z</time>
      </trkpt>
      <trkpt lat="43.57381" lon="5.53184">
        <ele>478</ele>
        <time>2011-03-17T12:58:11Z</time>
      </trkpt>
      <trkpt lat="43.57384" lon="5.53224">
        <ele>479</ele>
        <time>2011-03-17T12:58:20Z</time>
      </trkpt>
      <trkpt lat="43.57388" lon="5.5326">
        <ele>479</ele>
        <time>2011-03-17T12:58:28Z</time>
      </trkpt>
      <trkpt lat="43.57387" lon="5.53302">
        <ele>480</ele>
        <time>2011-03-17T12:58:37Z</time>
      </trkpt>
      <trkpt lat="43.57377" lon="5.53341">
        <ele>482</ele>
        <time>2011-03-17T12:58:46Z</time>
      </trkpt>
      <trkpt lat="43.57366" lon="5.53376">
        <ele>482</ele>
        <time>2011-03-17T12:58:54Z</time>
      </trkpt>
      <trkpt lat="43.57348" lon="5.53417">
        <ele>482</ele>
        <time>2011-03-17T12:59:03Z</time>
      </trkpt>
      <trkpt lat="43.57328" lon="5.53458">
        <ele>482</ele>
        <time>2011-03-17T12:59:12Z</time>
      </trkpt>
      <trkpt lat="43.57306" lon="5.53496">
        <ele>482</ele>
        <time>2011-03-17T12:59:21Z</time>
      </trkpt>
      <trkpt lat="43.5729" lon="5.53529">
        <ele>482</ele>
        <time>2011-03-17T12:59:29Z</time>
      </trkpt>
      <trkpt lat="43.57273" lon="5.53558">
        <ele>482</ele>
        <time>2011-03-17T12:59:38Z</time>
      </trkpt>
      <trkpt lat="43.57257" lon="5.53587">
        <ele>482</ele>
        <time>2011-03-17T12:59:47Z</time>
      </trkpt>
      <trkpt lat="43.57245" lon="5.53617">
        <ele>482</ele>
        <time>2011-03-17T12:59:55Z</time>
      </trkpt>
      <trkpt lat="43.57227" lon="5.53648">
        <ele>485</ele>
        <time>2011-03-17T13:00:04Z</time>
      </trkpt>
      <trkpt lat="43.57208" lon="5.53682">
        <ele>487</ele>
        <time>2011-03-17T13:00:13Z</time>
      </trkpt>
      <trkpt lat="43.57194" lon="5.53711">
        <ele>488</ele>
        <time>2011-03-17T13:00:21Z</time>
      </trkpt>
      <trkpt lat="43.57177" lon="5.53746">
        <ele>489</ele>
        <time>2011-03-17T13:00:30Z</time>
      </trkpt>
      <trkpt lat="43.57159" lon="5.53785">
        <ele>489</ele>
        <time>2011-03-17T13:00:39Z</time>
      </trkpt>
      <trkpt lat="43.57143" lon="5.53824">
        <ele>490</ele>
        <time>2011-03-17T13:00:47Z</time>
      </trkpt>
      <trkpt lat="43.57126" lon="5.5387">
        <ele>491</ele>
        <time>2011-03-17T13:00:56Z</time>
      </trkpt>
      <trkpt lat="43.57102" lon="5.53911">
        <ele>492</ele>
        <time>2011-03-17T13:01:05Z</time>
      </trkpt>
      <trkpt lat="43.57084" lon="5.53956">
        <ele>493</ele>
        <time>2011-03-17T13:01:14Z</time>
      </trkpt>
      <trkpt lat="43.57076" lon="5.53999">
        <ele>494</ele>
        <time>2011-03-17T13:01:22Z</time>
      </trkpt>
      <trkpt lat="43.5707" lon="5.54044">
        <ele>495</ele>
        <time>2011-03-17T13:01:31Z</time>
      </trkpt>
      <trkpt lat="43.57066" lon="5.54089">
        <ele>497</ele>
        <time>2011-03-17T13:01:40Z</time>
      </trkpt>
      <trkpt lat="43.57062" lon="5.54124">
        <ele>498</ele>
        <time>2011-03-17T13:01:48Z</time>
      </trkpt>
      <trkpt lat="43.57057" lon="5.54163">
        <ele>500</ele>
        <time>2011-03-17T13:01:57Z</time>
      </trkpt>
      <trkpt lat="43.57052" lon="5.54204">
        <ele>500</ele>
        <time>2011-03-17T13:02:06Z</time>
      </trkpt>
      <trkpt lat="43.57039" lon="5.54238">
        <ele>500</ele>
        <time>2011-03-17T13:02:14Z</time>
      </trkpt>
      <trkpt lat="43.57021" lon="5.54277">
        <ele>500</ele>
        <time>2011-03-17T13:02:23Z</time>
      </trkpt>
      <trkpt lat="43.57003" lon="5.54317">
        <ele>500</ele>
        <time>2011-03-17T13:02:32Z</time>
      </trkpt>
      <trkpt lat="43.57007" lon="5.54341">
        <ele>501</ele>
        <time>2011-03-17T13:03:07Z</time>
      </trkpt>
      <trkpt lat="43.57037" lon="5.54336">
        <ele>501</ele>
        <time>2011-03-17T13:03:15Z</time>
      </trkpt>
      <trkpt lat="43.57066" lon="5.54319">
        <ele>501</ele>
        <time>2011-03-17T13:03:24Z</time>
      </trkpt>
      <trkpt lat="43.57113" lon="5.54307">
        <ele>499</ele>
        <time>2011-03-17T13:03:33Z</time>
      </trkpt>
      <trkpt lat="43.57129" lon="5.54321">
        <ele>494</ele>
        <time>2011-03-17T13:03:42Z</time>
      </trkpt>
      <trkpt lat="43.57152" lon="5.54337">
        <ele>485</ele>
        <time>2011-03-17T13:03:51Z</time>
      </trkpt>
      <trkpt lat="43.5717" lon="5.54372">
        <ele>472</ele>
        <time>2011-03-17T13:04:00Z</time>
      </trkpt>
      <trkpt lat="43.57196" lon="5.54407">
        <ele>463</ele>
        <time>2011-03-17T13:04:08Z</time>
      </trkpt>
      <trkpt lat="43.57242" lon="5.54435">
        <ele>449</ele>
        <time>2011-03-17T13:04:17Z</time>
      </trkpt>
      <trkpt lat="43.57289" lon="5.5446">
        <ele>436</ele>
        <time>2011-03-17T13:04:26Z</time>
      </trkpt>
      <trkpt lat="43.57336" lon="5.54467">
        <ele>426</ele>
        <time>2011-03-17T13:04:35Z</time>
      </trkpt>
      <trkpt lat="43.57377" lon="5.54456">
        <ele>418</ele>
        <time>2011-03-17T13:04:43Z</time>
      </trkpt>
      <trkpt lat="43.57427" lon="5.54437">
        <ele>414</ele>
        <time>2011-03-17T13:04:52Z</time>
      </trkpt>
      <trkpt lat="43.57494" lon="5.54437">
        <ele>411</ele>
        <time>2011-03-17T13:05:01Z</time>
      </trkpt>
      <trkpt lat="43.57514" lon="5.54454">
        <ele>410</ele>
        <time>2011-03-17T13:05:09Z</time>
      </trkpt>
      <trkpt lat="43.57526" lon="5.54456">
        <ele>409</ele>
        <time>2011-03-17T13:06:13Z</time>
      </trkpt>
      <trkpt lat="43.57565" lon="5.5446">
        <ele>405</ele>
        <time>2011-03-17T13:06:22Z</time>
      </trkpt>
      <trkpt lat="43.57608" lon="5.54456">
        <ele>402</ele>
        <time>2011-03-17T13:06:30Z</time>
      </trkpt>
      <trkpt lat="43.57656" lon="5.54447">
        <ele>399</ele>
        <time>2011-03-17T13:06:39Z</time>
      </trkpt>
      <trkpt lat="43.57701" lon="5.54433">
        <ele>392</ele>
        <time>2011-03-17T13:06:48Z</time>
      </trkpt>
      <trkpt lat="43.57752" lon="5.54443">
        <ele>385</ele>
        <time>2011-03-17T13:06:56Z</time>
      </trkpt>
      <trkpt lat="43.57804" lon="5.54447">
        <ele>377</ele>
        <time>2011-03-17T13:07:05Z</time>
      </trkpt>
      <trkpt lat="43.57832" lon="5.54442">
        <ele>374</ele>
        <time>2011-03-17T13:07:14Z</time>
      </trkpt>
      <trkpt lat="43.57848" lon="5.54447">
        <ele>378</ele>
        <time>2011-03-17T13:07:48Z</time>
      </trkpt>
      <trkpt lat="43.57869" lon="5.54492">
        <ele>378</ele>
        <time>2011-03-17T13:07:56Z</time>
      </trkpt>
      <trkpt lat="43.57893" lon="5.54574">
        <ele>376</ele>
        <time>2011-03-17T13:08:05Z</time>
      </trkpt>
      <trkpt lat="43.57879" lon="5.54626">
        <ele>375</ele>
        <time>2011-03-17T13:08:14Z</time>
      </trkpt>
      <trkpt lat="43.57856" lon="5.54694">
        <ele>372</ele>
        <time>2011-03-17T13:08:22Z</time>
      </trkpt>
      <trkpt lat="43.57893" lon="5.54752">
        <ele>365</ele>
        <time>2011-03-17T13:08:31Z</time>
      </trkpt>
      <trkpt lat="43.5789" lon="5.5477">
        <ele>362</ele>
        <time>2011-03-17T13:08:40Z</time>
      </trkpt>
      <trkpt lat="43.57871" lon="5.54783">
        <ele>362</ele>
        <time>2011-03-17T13:08:48Z</time>
      </trkpt>
      <trkpt lat="43.57852" lon="5.54807">
        <ele>362</ele>
        <time>2011-03-17T13:08:57Z</time>
      </trkpt>
      <trkpt lat="43.57835" lon="5.54841">
        <ele>362</ele>
        <time>2011-03-17T13:09:06Z</time>
      </trkpt>
      <trkpt lat="43.57831" lon="5.5488">
        <ele>362</ele>
        <time>2011-03-17T13:09:15Z</time>
      </trkpt>
      <trkpt lat="43.57832" lon="5.54915">
        <ele>362</ele>
        <time>2011-03-17T13:09:23Z</time>
      </trkpt>
      <trkpt lat="43.57828" lon="5.54956">
        <ele>362</ele>
        <time>2011-03-17T13:09:32Z</time>
      </trkpt>
      <trkpt lat="43.57828" lon="5.54998">
        <ele>362</ele>
        <time>2011-03-17T13:09:41Z</time>
      </trkpt>
      <trkpt lat="43.57827" lon="5.55035">
        <ele>362</ele>
        <time>2011-03-17T13:09:49Z</time>
      </trkpt>
      <trkpt lat="43.57819" lon="5.55073">
        <ele>362</ele>
        <time>2011-03-17T13:09:58Z</time>
      </trkpt>
      <trkpt lat="43.57823" lon="5.55112">
        <ele>363</ele>
        <time>2011-03-17T13:10:07Z</time>
      </trkpt>
      <trkpt lat="43.57842" lon="5.55139">
        <ele>363</ele>
        <time>2011-03-17T13:10:15Z</time>
      </trkpt>
      <trkpt lat="43.57861" lon="5.55173">
        <ele>363</ele>
        <time>2011-03-17T13:10:24Z</time>
      </trkpt>
      <trkpt lat="43.57877" lon="5.55209">
        <ele>363</ele>
        <time>2011-03-17T13:10:33Z</time>
      </trkpt>
      <trkpt lat="43.57892" lon="5.5524">
        <ele>363</ele>
        <time>2011-03-17T13:10:41Z</time>
      </trkpt>
      <trkpt lat="43.57906" lon="5.55277">
        <ele>363</ele>
        <time>2011-03-17T13:10:50Z</time>
      </trkpt>
      <trkpt lat="43.5792" lon="5.55314">
        <ele>363</ele>
        <time>2011-03-17T13:10:59Z</time>
      </trkpt>
      <trkpt lat="43.57933" lon="5.55351">
        <ele>363</ele>
        <time>2011-03-17T13:11:08Z</time>
      </trkpt>
      <trkpt lat="43.57945" lon="5.55385">
        <ele>363</ele>
        <time>2011-03-17T13:11:16Z</time>
      </trkpt>
      <trkpt lat="43.57954" lon="5.55424">
        <ele>363</ele>
        <time>2011-03-17T13:11:25Z</time>
      </trkpt>
      <trkpt lat="43.5796" lon="5.55461">
        <ele>364</ele>
        <time>2011-03-17T13:11:34Z</time>
      </trkpt>
      <trkpt lat="43.57963" lon="5.55496">
        <ele>366</ele>
        <time>2011-03-17T13:11:42Z</time>
      </trkpt>
      <trkpt lat="43.57966" lon="5.55522">
        <ele>368</ele>
        <time>2011-03-17T13:11:51Z</time>
      </trkpt>
      <trkpt lat="43.57982" lon="5.55537">
        <ele>370</ele>
        <time>2011-03-17T13:12:00Z</time>
      </trkpt>
      <trkpt lat="43.5799" lon="5.5556">
        <ele>372</ele>
        <time>2011-03-17T13:12:08Z</time>
      </trkpt>
      <trkpt lat="43.57995" lon="5.55593">
        <ele>373</ele>
        <time>2011-03-17T13:12:17Z</time>
      </trkpt>
      <trkpt lat="43.57993" lon="5.55629">
        <ele>373</ele>
        <time>2011-03-17T13:12:26Z</time>
      </trkpt>
      <trkpt lat="43.57989" lon="5.55666">
        <ele>373</ele>
        <time>2011-03-17T13:12:35Z</time>
      </trkpt>
      <trkpt lat="43.57982" lon="5.55698">
        <ele>373</ele>
        <time>2011-03-17T13:12:43Z</time>
      </trkpt>
      <trkpt lat="43.57969" lon="5.55735">
        <ele>373</ele>
        <time>2011-03-17T13:12:52Z</time>
      </trkpt>
      <trkpt lat="43.57955" lon="5.55773">
        <ele>374</ele>
        <time>2011-03-17T13:13:01Z</time>
      </trkpt>
      <trkpt lat="43.57949" lon="5.55809">
        <ele>375</ele>
        <time>2011-03-17T13:13:09Z</time>
      </trkpt>
      <trkpt lat="43.57936" lon="5.55847">
        <ele>376</ele>
        <time>2011-03-17T13:13:18Z</time>
      </trkpt>
      <trkpt lat="43.57918" lon="5.5588">
        <ele>377</ele>
        <time>2011-03-17T13:13:27Z</time>
      </trkpt>
      <trkpt lat="43.57901" lon="5.55907">
        <ele>378</ele>
        <time>2011-03-17T13:13:35Z</time>
      </trkpt>
      <trkpt lat="43.57877" lon="5.55933">
        <ele>379</ele>
        <time>2011-03-17T13:13:44Z</time>
      </trkpt>
      <trkpt lat="43.57853" lon="5.55956">
        <ele>379</ele>
        <time>2011-03-17T13:13:53Z</time>
      </trkpt>
      <trkpt lat="43.57837" lon="5.55986">
        <ele>379</ele>
        <time>2011-03-17T13:14:02Z</time>
      </trkpt>
      <trkpt lat="43.57838" lon="5.5602">
        <ele>379</ele>
        <time>2011-03-17T13:14:10Z</time>
      </trkpt>
      <trkpt lat="43.57842" lon="5.56056">
        <ele>381</ele>
        <time>2011-03-17T13:14:19Z</time>
      </trkpt>
      <trkpt lat="43.57854" lon="5.5609">
        <ele>381</ele>
        <time>2011-03-17T13:14:28Z</time>
      </trkpt>
      <trkpt lat="43.57876" lon="5.56102">
        <ele>381</ele>
        <time>2011-03-17T13:14:36Z</time>
      </trkpt>
      <trkpt lat="43.57898" lon="5.56117">
        <ele>381</ele>
        <time>2011-03-17T13:14:45Z</time>
      </trkpt>
      <trkpt lat="43.57915" lon="5.56144">
        <ele>381</ele>
        <time>2011-03-17T13:14:54Z</time>
      </trkpt>
      <trkpt lat="43.57932" lon="5.56165">
        <ele>382</ele>
        <time>2011-03-17T13:15:02Z</time>
      </trkpt>
      <trkpt lat="43.57948" lon="5.56191">
        <ele>383</ele>
        <time>2011-03-17T13:15:11Z</time>
      </trkpt>
      <trkpt lat="43.57972" lon="5.56209">
        <ele>385</ele>
        <time>2011-03-17T13:15:20Z</time>
      </trkpt>
      <trkpt lat="43.57991" lon="5.56224">
        <ele>387</ele>
        <time>2011-03-17T13:15:28Z</time>
      </trkpt>
      <trkpt lat="43.58011" lon="5.56225">
        <ele>390</ele>
        <time>2011-03-17T13:15:37Z</time>
      </trkpt>
      <trkpt lat="43.58033" lon="5.56228">
        <ele>391</ele>
        <time>2011-03-17T13:15:46Z</time>
      </trkpt>
      <trkpt lat="43.58048" lon="5.56252">
        <ele>392</ele>
        <time>2011-03-17T13:15:55Z</time>
      </trkpt>
      <trkpt lat="43.58061" lon="5.56275">
        <ele>392</ele>
        <time>2011-03-17T13:16:03Z</time>
      </trkpt>
      <trkpt lat="43.58082" lon="5.56294">
        <ele>392</ele>
        <time>2011-03-17T13:16:12Z</time>
      </trkpt>
      <trkpt lat="43.58099" lon="5.56318">
        <ele>392</ele>
        <time>2011-03-17T13:16:21Z</time>
      </trkpt>
      <trkpt lat="43.58116" lon="5.5634">
        <ele>392</ele>
        <time>2011-03-17T13:16:29Z</time>
      </trkpt>
      <trkpt lat="43.58137" lon="5.56363">
        <ele>392</ele>
        <time>2011-03-17T13:16:38Z</time>
      </trkpt>
      <trkpt lat="43.58149" lon="5.56396">
        <ele>392</ele>
        <time>2011-03-17T13:16:47Z</time>
      </trkpt>
      <trkpt lat="43.58168" lon="5.56408">
        <ele>395</ele>
        <time>2011-03-17T13:16:55Z</time>
      </trkpt>
      <trkpt lat="43.58191" lon="5.56414">
        <ele>395</ele>
        <time>2011-03-17T13:17:04Z</time>
      </trkpt>
      <trkpt lat="43.58214" lon="5.56415">
        <ele>395</ele>
        <time>2011-03-17T13:17:13Z</time>
      </trkpt>
      <trkpt lat="43.58236" lon="5.56409">
        <ele>395</ele>
        <time>2011-03-17T13:17:22Z</time>
      </trkpt>
      <trkpt lat="43.58255" lon="5.56402">
        <ele>396</ele>
        <time>2011-03-17T13:17:30Z</time>
      </trkpt>
      <trkpt lat="43.58275" lon="5.56406">
        <ele>398</ele>
        <time>2011-03-17T13:17:39Z</time>
      </trkpt>
      <trkpt lat="43.58288" lon="5.56426">
        <ele>399</ele>
        <time>2011-03-17T13:17:48Z</time>
      </trkpt>
      <trkpt lat="43.58295" lon="5.56449">
        <ele>401</ele>
        <time>2011-03-17T13:17:56Z</time>
      </trkpt>
      <trkpt lat="43.583" lon="5.56475">
        <ele>403</ele>
        <time>2011-03-17T13:18:05Z</time>
      </trkpt>
      <trkpt lat="43.58302" lon="5.56501">
        <ele>405</ele>
        <time>2011-03-17T13:18:14Z</time>
      </trkpt>
      <trkpt lat="43.58302" lon="5.56522">
        <ele>408</ele>
        <time>2011-03-17T13:18:22Z</time>
      </trkpt>
      <trkpt lat="43.58303" lon="5.56545">
        <ele>410</ele>
        <time>2011-03-17T13:18:31Z</time>
      </trkpt>
      <trkpt lat="43.58315" lon="5.56559">
        <ele>411</ele>
        <time>2011-03-17T13:18:40Z</time>
      </trkpt>
      <trkpt lat="43.58331" lon="5.56564">
        <ele>411</ele>
        <time>2011-03-17T13:18:48Z</time>
      </trkpt>
      <trkpt lat="43.58351" lon="5.56559">
        <ele>411</ele>
        <time>2011-03-17T13:18:57Z</time>
      </trkpt>
      <trkpt lat="43.58371" lon="5.56551">
        <ele>411</ele>
        <time>2011-03-17T13:19:06Z</time>
      </trkpt>
      <trkpt lat="43.58385" lon="5.56532">
        <ele>412</ele>
        <time>2011-03-17T13:19:15Z</time>
      </trkpt>
      <trkpt lat="43.584" lon="5.56532">
        <ele>413</ele>
        <time>2011-03-17T13:19:23Z</time>
      </trkpt>
      <trkpt lat="43.58417" lon="5.56545">
        <ele>414</ele>
        <time>2011-03-17T13:19:32Z</time>
      </trkpt>
      <trkpt lat="43.58425" lon="5.56573">
        <ele>414</ele>
        <time>2011-03-17T13:19:41Z</time>
      </trkpt>
      <trkpt lat="43.58428" lon="5.56597">
        <ele>415</ele>
        <time>2011-03-17T13:19:49Z</time>
      </trkpt>
      <trkpt lat="43.5843" lon="5.56622">
        <ele>418</ele>
        <time>2011-03-17T13:19:58Z</time>
      </trkpt>
      <trkpt lat="43.58435" lon="5.56645">
        <ele>419</ele>
        <time>2011-03-17T13:20:07Z</time>
      </trkpt>
      <trkpt lat="43.58437" lon="5.5666">
        <ele>420</ele>
        <time>2011-03-17T13:20:15Z</time>
      </trkpt>
      <trkpt lat="43.58436" lon="5.56677">
        <ele>422</ele>
        <time>2011-03-17T13:20:25Z</time>
      </trkpt>
      <trkpt lat="43.58439" lon="5.56692">
        <ele>423</ele>
        <time>2011-03-17T13:20:34Z</time>
      </trkpt>
      <trkpt lat="43.58443" lon="5.56707">
        <ele>425</ele>
        <time>2011-03-17T13:20:43Z</time>
      </trkpt>
      <trkpt lat="43.5845" lon="5.56719">
        <ele>426</ele>
        <time>2011-03-17T13:20:51Z</time>
      </trkpt>
      <trkpt lat="43.58459" lon="5.56736">
        <ele>428</ele>
        <time>2011-03-17T13:21:03Z</time>
      </trkpt>
      <trkpt lat="43.58468" lon="5.56753">
        <ele>430</ele>
        <time>2011-03-17T13:21:15Z</time>
      </trkpt>
      <trkpt lat="43.58473" lon="5.56766">
        <ele>431</ele>
        <time>2011-03-17T13:21:23Z</time>
      </trkpt>
      <trkpt lat="43.58482" lon="5.5678">
        <ele>431</ele>
        <time>2011-03-17T13:21:33Z</time>
      </trkpt>
      <trkpt lat="43.58492" lon="5.56794">
        <ele>432</ele>
        <time>2011-03-17T13:21:43Z</time>
      </trkpt>
      <trkpt lat="43.58501" lon="5.56805">
        <ele>432</ele>
        <time>2011-03-17T13:21:51Z</time>
      </trkpt>
      <trkpt lat="43.58515" lon="5.56814">
        <ele>434</ele>
        <time>2011-03-17T13:22:02Z</time>
      </trkpt>
      <trkpt lat="43.58529" lon="5.56817">
        <ele>437</ele>
        <time>2011-03-17T13:22:11Z</time>
      </trkpt>
      <trkpt lat="43.58542" lon="5.56814">
        <ele>438</ele>
        <time>2011-03-17T13:22:20Z</time>
      </trkpt>
      <trkpt lat="43.58553" lon="5.56807">
        <ele>438</ele>
        <time>2011-03-17T13:22:28Z</time>
      </trkpt>
      <trkpt lat="43.58564" lon="5.56812">
        <ele>438</ele>
        <time>2011-03-17T13:22:37Z</time>
      </trkpt>
      <trkpt lat="43.58577" lon="5.56821">
        <ele>440</ele>
        <time>2011-03-17T13:22:46Z</time>
      </trkpt>
      <trkpt lat="43.58587" lon="5.56824">
        <ele>441</ele>
        <time>2011-03-17T13:22:54Z</time>
      </trkpt>
      <trkpt lat="43.58599" lon="5.56823">
        <ele>441</ele>
        <time>2011-03-17T13:23:03Z</time>
      </trkpt>
      <trkpt lat="43.58611" lon="5.56826">
        <ele>441</ele>
        <time>2011-03-17T13:23:13Z</time>
      </trkpt>
      <trkpt lat="43.58611" lon="5.56834">
        <ele>445</ele>
        <time>2011-03-17T13:23:37Z</time>
      </trkpt>
      <trkpt lat="43.58602" lon="5.56854">
        <ele>446</ele>
        <time>2011-03-17T13:23:46Z</time>
      </trkpt>
      <trkpt lat="43.58601" lon="5.56882">
        <ele>446</ele>
        <time>2011-03-17T13:23:55Z</time>
      </trkpt>
      <trkpt lat="43.58598" lon="5.56905">
        <ele>447</ele>
        <time>2011-03-17T13:24:03Z</time>
      </trkpt>
      <trkpt lat="43.58595" lon="5.56932">
        <ele>449</ele>
        <time>2011-03-17T13:24:12Z</time>
      </trkpt>
      <trkpt lat="43.58591" lon="5.56957">
        <ele>450</ele>
        <time>2011-03-17T13:24:21Z</time>
      </trkpt>
      <trkpt lat="43.58588" lon="5.56983">
        <ele>451</ele>
        <time>2011-03-17T13:24:30Z</time>
      </trkpt>
      <trkpt lat="43.5859" lon="5.57004">
        <ele>451</ele>
        <time>2011-03-17T13:24:38Z</time>
      </trkpt>
      <trkpt lat="43.58597" lon="5.57021">
        <ele>451</ele>
        <time>2011-03-17T13:24:47Z</time>
      </trkpt>
      <trkpt lat="43.58611" lon="5.57035">
        <ele>451</ele>
        <time>2011-03-17T13:24:58Z</time>
      </trkpt>
      <trkpt lat="43.58622" lon="5.57049">
        <ele>453</ele>
        <time>2011-03-17T13:25:06Z</time>
      </trkpt>
      <trkpt lat="43.58633" lon="5.57067">
        <ele>455</ele>
        <time>2011-03-17T13:25:15Z</time>
      </trkpt>
      <trkpt lat="43.5864" lon="5.57085">
        <ele>456</ele>
        <time>2011-03-17T13:25:24Z</time>
      </trkpt>
      <trkpt lat="43.5865" lon="5.57101">
        <ele>457</ele>
        <time>2011-03-17T13:25:32Z</time>
      </trkpt>
      <trkpt lat="43.58663" lon="5.57111">
        <ele>458</ele>
        <time>2011-03-17T13:25:41Z</time>
      </trkpt>
      <trkpt lat="43.58682" lon="5.57113">
        <ele>460</ele>
        <time>2011-03-17T13:25:50Z</time>
      </trkpt>
      <trkpt lat="43.58697" lon="5.57115">
        <ele>463</ele>
        <time>2011-03-17T13:25:59Z</time>
      </trkpt>
      <trkpt lat="43.58711" lon="5.57117">
        <ele>463</ele>
        <time>2011-03-17T13:26:07Z</time>
      </trkpt>
      <trkpt lat="43.58727" lon="5.57119">
        <ele>463</ele>
        <time>2011-03-17T13:26:16Z</time>
      </trkpt>
      <trkpt lat="43.58744" lon="5.57123">
        <ele>464</ele>
        <time>2011-03-17T13:26:25Z</time>
      </trkpt>
      <trkpt lat="43.58758" lon="5.57127">
        <ele>464</ele>
        <time>2011-03-17T13:26:33Z</time>
      </trkpt>
      <trkpt lat="43.58768" lon="5.57142">
        <ele>464</ele>
        <time>2011-03-17T13:26:42Z</time>
      </trkpt>
      <trkpt lat="43.58775" lon="5.57162">
        <ele>464</ele>
        <time>2011-03-17T13:26:51Z</time>
      </trkpt>
      <trkpt lat="43.58782" lon="5.5718">
        <ele>464</ele>
        <time>2011-03-17T13:26:59Z</time>
      </trkpt>
      <trkpt lat="43.58789" lon="5.572">
        <ele>466</ele>
        <time>2011-03-17T13:27:08Z</time>
      </trkpt>
      <trkpt lat="43.58793" lon="5.5722">
        <ele>468</ele>
        <time>2011-03-17T13:27:17Z</time>
      </trkpt>
      <trkpt lat="43.58789" lon="5.57239">
        <ele>470</ele>
        <time>2011-03-17T13:27:25Z</time>
      </trkpt>
      <trkpt lat="43.58785" lon="5.57259">
        <ele>470</ele>
        <time>2011-03-17T13:27:34Z</time>
      </trkpt>
      <trkpt lat="43.58783" lon="5.57281">
        <ele>471</ele>
        <time>2011-03-17T13:27:43Z</time>
      </trkpt>
      <trkpt lat="43.58782" lon="5.57298">
        <ele>473</ele>
        <time>2011-03-17T13:27:52Z</time>
      </trkpt>
      <trkpt lat="43.58786" lon="5.57315">
        <ele>473</ele>
        <time>2011-03-17T13:28:00Z</time>
      </trkpt>
      <trkpt lat="43.58786" lon="5.57334">
        <ele>474</ele>
        <time>2011-03-17T13:28:09Z</time>
      </trkpt>
      <trkpt lat="43.58778" lon="5.57351">
        <ele>475</ele>
        <time>2011-03-17T13:28:18Z</time>
      </trkpt>
      <trkpt lat="43.58771" lon="5.57366">
        <ele>476</ele>
        <time>2011-03-17T13:28:26Z</time>
      </trkpt>
      <trkpt lat="43.58761" lon="5.57382">
        <ele>476</ele>
        <time>2011-03-17T13:28:35Z</time>
      </trkpt>
      <trkpt lat="43.58752" lon="5.57401">
        <ele>477</ele>
        <time>2011-03-17T13:28:44Z</time>
      </trkpt>
      <trkpt lat="43.58749" lon="5.5742">
        <ele>478</ele>
        <time>2011-03-17T13:28:52Z</time>
      </trkpt>
      <trkpt lat="43.58747" lon="5.5744">
        <ele>479</ele>
        <time>2011-03-17T13:29:01Z</time>
      </trkpt>
      <trkpt lat="43.58746" lon="5.5746">
        <ele>479</ele>
        <time>2011-03-17T13:29:10Z</time>
      </trkpt>
      <trkpt lat="43.58745" lon="5.57482">
        <ele>479</ele>
        <time>2011-03-17T13:29:19Z</time>
      </trkpt>
      <trkpt lat="43.58749" lon="5.57502">
        <ele>479</ele>
        <time>2011-03-17T13:29:27Z</time>
      </trkpt>
      <trkpt lat="43.58756" lon="5.57525">
        <ele>481</ele>
        <time>2011-03-17T13:29:36Z</time>
      </trkpt>
      <trkpt lat="43.58765" lon="5.57545">
        <ele>482</ele>
        <time>2011-03-17T13:29:45Z</time>
      </trkpt>
      <trkpt lat="43.58776" lon="5.5756">
        <ele>484</ele>
        <time>2011-03-17T13:29:53Z</time>
      </trkpt>
      <trkpt lat="43.58786" lon="5.57578">
        <ele>486</ele>
        <time>2011-03-17T13:30:02Z</time>
      </trkpt>
      <trkpt lat="43.58798" lon="5.57595">
        <ele>487</ele>
        <time>2011-03-17T13:30:11Z</time>
      </trkpt>
      <trkpt lat="43.58806" lon="5.57612">
        <ele>489</ele>
        <time>2011-03-17T13:30:19Z</time>
      </trkpt>
      <trkpt lat="43.58817" lon="5.57628">
        <ele>490</ele>
        <time>2011-03-17T13:30:28Z</time>
      </trkpt>
      <trkpt lat="43.58831" lon="5.57637">
        <ele>491</ele>
        <time>2011-03-17T13:30:37Z</time>
      </trkpt>
      <trkpt lat="43.58846" lon="5.57642">
        <ele>493</ele>
        <time>2011-03-17T13:30:46Z</time>
      </trkpt>
      <trkpt lat="43.58853" lon="5.57653">
        <ele>495</ele>
        <time>2011-03-17T13:30:54Z</time>
      </trkpt>
      <trkpt lat="43.58867" lon="5.57651">
        <ele>497</ele>
        <time>2011-03-17T13:31:06Z</time>
      </trkpt>
      <trkpt lat="43.58879" lon="5.57649">
        <ele>499</ele>
        <time>2011-03-17T13:31:15Z</time>
      </trkpt>
      <trkpt lat="43.58889" lon="5.57647">
        <ele>501</ele>
        <time>2011-03-17T13:31:23Z</time>
      </trkpt>
      <trkpt lat="43.58902" lon="5.57646">
        <ele>502</ele>
        <time>2011-03-17T13:31:32Z</time>
      </trkpt>
      <trkpt lat="43.58914" lon="5.57648">
        <ele>505</ele>
        <time>2011-03-17T13:31:41Z</time>
      </trkpt>
      <trkpt lat="43.58925" lon="5.57651">
        <ele>508</ele>
        <time>2011-03-17T13:31:49Z</time>
      </trkpt>
      <trkpt lat="43.58938" lon="5.57654">
        <ele>510</ele>
        <time>2011-03-17T13:31:58Z</time>
      </trkpt>
      <trkpt lat="43.58952" lon="5.57658">
        <ele>513</ele>
        <time>2011-03-17T13:32:07Z</time>
      </trkpt>
      <trkpt lat="43.58963" lon="5.57659">
        <ele>514</ele>
        <time>2011-03-17T13:32:15Z</time>
      </trkpt>
      <trkpt lat="43.58976" lon="5.57655">
        <ele>515</ele>
        <time>2011-03-17T13:32:24Z</time>
      </trkpt>
      <trkpt lat="43.58986" lon="5.57644">
        <ele>516</ele>
        <time>2011-03-17T13:32:34Z</time>
      </trkpt>
      <trkpt lat="43.58995" lon="5.57629">
        <ele>517</ele>
        <time>2011-03-17T13:32:44Z</time>
      </trkpt>
      <trkpt lat="43.59001" lon="5.57613">
        <ele>518</ele>
        <time>2011-03-17T13:32:53Z</time>
      </trkpt>
      <trkpt lat="43.59009" lon="5.57601">
        <ele>519</ele>
        <time>2011-03-17T13:33:03Z</time>
      </trkpt>
      <trkpt lat="43.59024" lon="5.57592">
        <ele>520</ele>
        <time>2011-03-17T13:33:18Z</time>
      </trkpt>
      <trkpt lat="43.59035" lon="5.57586">
        <ele>520</ele>
        <time>2011-03-17T13:33:28Z</time>
      </trkpt>
      <trkpt lat="43.59046" lon="5.57577">
        <ele>520</ele>
        <time>2011-03-17T13:33:39Z</time>
      </trkpt>
      <trkpt lat="43.59059" lon="5.57568">
        <ele>521</ele>
        <time>2011-03-17T13:33:51Z</time>
      </trkpt>
      <trkpt lat="43.59072" lon="5.57558">
        <ele>522</ele>
        <time>2011-03-17T13:34:03Z</time>
      </trkpt>
      <trkpt lat="43.59085" lon="5.57552">
        <ele>522</ele>
        <time>2011-03-17T13:34:12Z</time>
      </trkpt>
      <trkpt lat="43.59098" lon="5.57545">
        <ele>523</ele>
        <time>2011-03-17T13:34:21Z</time>
      </trkpt>
      <trkpt lat="43.59114" lon="5.57544">
        <ele>523</ele>
        <time>2011-03-17T13:34:30Z</time>
      </trkpt>
      <trkpt lat="43.59129" lon="5.57541">
        <ele>523</ele>
        <time>2011-03-17T13:34:38Z</time>
      </trkpt>
      <trkpt lat="43.59147" lon="5.57544">
        <ele>525</ele>
        <time>2011-03-17T13:34:47Z</time>
      </trkpt>
      <trkpt lat="43.59165" lon="5.57541">
        <ele>526</ele>
        <time>2011-03-17T13:34:56Z</time>
      </trkpt>
      <trkpt lat="43.5918" lon="5.57536">
        <ele>526</ele>
        <time>2011-03-17T13:35:04Z</time>
      </trkpt>
      <trkpt lat="43.59201" lon="5.57542">
        <ele>526</ele>
        <time>2011-03-17T13:35:13Z</time>
      </trkpt>
      <trkpt lat="43.5923" lon="5.57543">
        <ele>526</ele>
        <time>2011-03-17T13:35:22Z</time>
      </trkpt>
      <trkpt lat="43.5925" lon="5.5754">
        <ele>526</ele>
        <time>2011-03-17T13:35:30Z</time>
      </trkpt>
      <trkpt lat="43.59274" lon="5.57525">
        <ele>526</ele>
        <time>2011-03-17T13:35:39Z</time>
      </trkpt>
      <trkpt lat="43.59294" lon="5.57507">
        <ele>524</ele>
        <time>2011-03-17T13:35:48Z</time>
      </trkpt>
      <trkpt lat="43.59317" lon="5.57509">
        <ele>522</ele>
        <time>2011-03-17T13:35:56Z</time>
      </trkpt>
      <trkpt lat="43.59343" lon="5.57504">
        <ele>521</ele>
        <time>2011-03-17T13:36:05Z</time>
      </trkpt>
      <trkpt lat="43.59369" lon="5.57492">
        <ele>521</ele>
        <time>2011-03-17T13:36:14Z</time>
      </trkpt>
      <trkpt lat="43.59385" lon="5.57461">
        <ele>521</ele>
        <time>2011-03-17T13:36:23Z</time>
      </trkpt>
      <trkpt lat="43.59402" lon="5.5746">
        <ele>521</ele>
        <time>2011-03-17T13:36:31Z</time>
      </trkpt>
      <trkpt lat="43.59419" lon="5.57472">
        <ele>523</ele>
        <time>2011-03-17T13:36:40Z</time>
      </trkpt>
      <trkpt lat="43.5944" lon="5.57472">
        <ele>525</ele>
        <time>2011-03-17T13:36:49Z</time>
      </trkpt>
      <trkpt lat="43.59454" lon="5.57474">
        <ele>526</ele>
        <time>2011-03-17T13:36:57Z</time>
      </trkpt>
      <trkpt lat="43.59464" lon="5.57446">
        <ele>526</ele>
        <time>2011-03-17T13:37:06Z</time>
      </trkpt>
      <trkpt lat="43.5948" lon="5.57414">
        <ele>526</ele>
        <time>2011-03-17T13:37:15Z</time>
      </trkpt>
      <trkpt lat="43.59494" lon="5.57383">
        <ele>527</ele>
        <time>2011-03-17T13:37:23Z</time>
      </trkpt>
      <trkpt lat="43.5951" lon="5.57342">
        <ele>527</ele>
        <time>2011-03-17T13:37:32Z</time>
      </trkpt>
      <trkpt lat="43.59531" lon="5.57303">
        <ele>527</ele>
        <time>2011-03-17T13:37:41Z</time>
      </trkpt>
      <trkpt lat="43.59549" lon="5.57264">
        <ele>528</ele>
        <time>2011-03-17T13:37:50Z</time>
      </trkpt>
      <trkpt lat="43.59555" lon="5.57226">
        <ele>528</ele>
        <time>2011-03-17T13:37:58Z</time>
      </trkpt>
      <trkpt lat="43.5957" lon="5.5719">
        <ele>528</ele>
        <time>2011-03-17T13:38:07Z</time>
      </trkpt>
      <trkpt lat="43.5959" lon="5.57155">
        <ele>528</ele>
        <time>2011-03-17T13:38:16Z</time>
      </trkpt>
      <trkpt lat="43.59605" lon="5.57127">
        <ele>528</ele>
        <time>2011-03-17T13:38:24Z</time>
      </trkpt>
      <trkpt lat="43.59623" lon="5.571">
        <ele>529</ele>
        <time>2011-03-17T13:38:33Z</time>
      </trkpt>
      <trkpt lat="43.5964" lon="5.57075">
        <ele>531</ele>
        <time>2011-03-17T13:38:42Z</time>
      </trkpt>
      <trkpt lat="43.59645" lon="5.57065">
        <ele>534</ele>
        <time>2011-03-17T13:39:20Z</time>
      </trkpt>
      <trkpt lat="43.59644" lon="5.57065">
        <ele>535</ele>
        <time>2011-03-17T13:40:43Z</time>
      </trkpt>
      <trkpt lat="43.59653" lon="5.57057">
        <ele>535</ele>
        <time>2011-03-17T13:41:30Z</time>
      </trkpt>
      <trkpt lat="43.59676" lon="5.57039">
        <ele>535</ele>
        <time>2011-03-17T13:41:39Z</time>
      </trkpt>
      <trkpt lat="43.59699" lon="5.57019">
        <ele>535</ele>
        <time>2011-03-17T13:41:47Z</time>
      </trkpt>
      <trkpt lat="43.59732" lon="5.5702">
        <ele>535</ele>
        <time>2011-03-17T13:41:56Z</time>
      </trkpt>
      <trkpt lat="43.59764" lon="5.5705">
        <ele>535</ele>
        <time>2011-03-17T13:42:05Z</time>
      </trkpt>
      <trkpt lat="43.59796" lon="5.57073">
        <ele>535</ele>
        <time>2011-03-17T13:42:13Z</time>
      </trkpt>
      <trkpt lat="43.59836" lon="5.57089">
        <ele>535</ele>
        <time>2011-03-17T13:42:22Z</time>
      </trkpt>
      <trkpt lat="43.59876" lon="5.57123">
        <ele>535</ele>
        <time>2011-03-17T13:42:31Z</time>
      </trkpt>
      <trkpt lat="43.59876" lon="5.57125">
        <ele>533</ele>
        <time>2011-03-17T13:42:47Z</time>
      </trkpt>
      <trkpt lat="43.59868" lon="5.57105">
        <ele>533</ele>
        <time>2011-03-17T13:42:56Z</time>
      </trkpt>
      <trkpt lat="43.59866" lon="5.57079">
        <ele>533</ele>
        <time>2011-03-17T13:43:05Z</time>
      </trkpt>
      <trkpt lat="43.59883" lon="5.57066">
        <ele>533</ele>
        <time>2011-03-17T13:43:13Z</time>
      </trkpt>
      <trkpt lat="43.59891" lon="5.57039">
        <ele>533</ele>
        <time>2011-03-17T13:43:22Z</time>
      </trkpt>
      <trkpt lat="43.59909" lon="5.5704">
        <ele>533</ele>
        <time>2011-03-17T13:43:32Z</time>
      </trkpt>
      <trkpt lat="43.59919" lon="5.57043">
        <ele>531</ele>
        <time>2011-03-17T13:44:56Z</time>
      </trkpt>
      <trkpt lat="43.59952" lon="5.57046">
        <ele>527</ele>
        <time>2011-03-17T13:45:04Z</time>
      </trkpt>
      <trkpt lat="43.59996" lon="5.57062">
        <ele>518</ele>
        <time>2011-03-17T13:45:13Z</time>
      </trkpt>
      <trkpt lat="43.60062" lon="5.57054">
        <ele>503</ele>
        <time>2011-03-17T13:45:22Z</time>
      </trkpt>
      <trkpt lat="43.60071" lon="5.57036">
        <ele>487</ele>
        <time>2011-03-17T13:45:32Z</time>
      </trkpt>
      <trkpt lat="43.6009" lon="5.57026">
        <ele>480</ele>
        <time>2011-03-17T13:45:49Z</time>
      </trkpt>
      <trkpt lat="43.60139" lon="5.57029">
        <ele>478</ele>
        <time>2011-03-17T13:45:58Z</time>
      </trkpt>
      <trkpt lat="43.60183" lon="5.57022">
        <ele>472</ele>
        <time>2011-03-17T13:46:06Z</time>
      </trkpt>
      <trkpt lat="43.60228" lon="5.57021">
        <ele>465</ele>
        <time>2011-03-17T13:46:15Z</time>
      </trkpt>
      <trkpt lat="43.60291" lon="5.57035">
        <ele>461</ele>
        <time>2011-03-17T13:46:24Z</time>
      </trkpt>
      <trkpt lat="43.60332" lon="5.57016">
        <ele>457</ele>
        <time>2011-03-17T13:46:33Z</time>
      </trkpt>
      <trkpt lat="43.60357" lon="5.56956">
        <ele>452</ele>
        <time>2011-03-17T13:46:41Z</time>
      </trkpt>
      <trkpt lat="43.60389" lon="5.56888">
        <ele>445</ele>
        <time>2011-03-17T13:46:50Z</time>
      </trkpt>
      <trkpt lat="43.60429" lon="5.56825">
        <ele>436</ele>
        <time>2011-03-17T13:46:59Z</time>
      </trkpt>
      <trkpt lat="43.60472" lon="5.56799">
        <ele>428</ele>
        <time>2011-03-17T13:47:07Z</time>
      </trkpt>
      <trkpt lat="43.60524" lon="5.56772">
        <ele>419</ele>
        <time>2011-03-17T13:47:16Z</time>
      </trkpt>
      <trkpt lat="43.60567" lon="5.56752">
        <ele>417</ele>
        <time>2011-03-17T13:47:25Z</time>
      </trkpt>
      <trkpt lat="43.60591" lon="5.5675">
        <ele>415</ele>
        <time>2011-03-17T13:47:33Z</time>
      </trkpt>
      <trkpt lat="43.60614" lon="5.56745">
        <ele>415</ele>
        <time>2011-03-17T13:48:13Z</time>
      </trkpt>
      <trkpt lat="43.60665" lon="5.56723">
        <ele>414</ele>
        <time>2011-03-17T13:48:22Z</time>
      </trkpt>
      <trkpt lat="43.60716" lon="5.56706">
        <ele>409</ele>
        <time>2011-03-17T13:48:30Z</time>
      </trkpt>
      <trkpt lat="43.60777" lon="5.56681">
        <ele>401</ele>
        <time>2011-03-17T13:48:39Z</time>
      </trkpt>
      <trkpt lat="43.60826" lon="5.56695">
        <ele>395</ele>
        <time>2011-03-17T13:48:48Z</time>
      </trkpt>
      <trkpt lat="43.60863" lon="5.56737">
        <ele>391</ele>
        <time>2011-03-17T13:48:57Z</time>
      </trkpt>
      <trkpt lat="43.60905" lon="5.56728">
        <ele>387</ele>
        <time>2011-03-17T13:49:05Z</time>
      </trkpt>
      <trkpt lat="43.60944" lon="5.5674">
        <ele>386</ele>
        <time>2011-03-17T13:49:14Z</time>
      </trkpt>
      <trkpt lat="43.60982" lon="5.56764">
        <ele>386</ele>
        <time>2011-03-17T13:49:23Z</time>
      </trkpt>
      <trkpt lat="43.61024" lon="5.56763">
        <ele>384</ele>
        <time>2011-03-17T13:49:31Z</time>
      </trkpt>
      <trkpt lat="43.61065" lon="5.56708">
        <ele>381</ele>
        <time>2011-03-17T13:49:40Z</time>
      </trkpt>
      <trkpt lat="43.61105" lon="5.56652">
        <ele>380</ele>
        <time>2011-03-17T13:49:49Z</time>
      </trkpt>
      <trkpt lat="43.61135" lon="5.56636">
        <ele>376</ele>
        <time>2011-03-17T13:49:57Z</time>
      </trkpt>
      <trkpt lat="43.61169" lon="5.56632">
        <ele>372</ele>
        <time>2011-03-17T13:50:06Z</time>
      </trkpt>
      <trkpt lat="43.61202" lon="5.56645">
        <ele>372</ele>
        <time>2011-03-17T13:50:15Z</time>
      </trkpt>
      <trkpt lat="43.61226" lon="5.56672">
        <ele>372</ele>
        <time>2011-03-17T13:50:24Z</time>
      </trkpt>
      <trkpt lat="43.61234" lon="5.56683">
        <ele>377</ele>
        <time>2011-03-17T13:50:50Z</time>
      </trkpt>
      <trkpt lat="43.61261" lon="5.56684">
        <ele>381</ele>
        <time>2011-03-17T13:51:05Z</time>
      </trkpt>
      <trkpt lat="43.61311" lon="5.56677">
        <ele>373</ele>
        <time>2011-03-17T13:51:14Z</time>
      </trkpt>
      <trkpt lat="43.61351" lon="5.56682">
        <ele>367</ele>
        <time>2011-03-17T13:51:22Z</time>
      </trkpt>
      <trkpt lat="43.61388" lon="5.56638">
        <ele>363</ele>
        <time>2011-03-17T13:51:31Z</time>
      </trkpt>
      <trkpt lat="43.61427" lon="5.56611">
        <ele>362</ele>
        <time>2011-03-17T13:51:40Z</time>
      </trkpt>
      <trkpt lat="43.61465" lon="5.56619">
        <ele>359</ele>
        <time>2011-03-17T13:51:48Z</time>
      </trkpt>
      <trkpt lat="43.61501" lon="5.56611">
        <ele>356</ele>
        <time>2011-03-17T13:51:57Z</time>
      </trkpt>
      <trkpt lat="43.61531" lon="5.56568">
        <ele>355</ele>
        <time>2011-03-17T13:52:06Z</time>
      </trkpt>
      <trkpt lat="43.61555" lon="5.56507">
        <ele>351</ele>
        <time>2011-03-17T13:52:15Z</time>
      </trkpt>
      <trkpt lat="43.61572" lon="5.56455">
        <ele>348</ele>
        <time>2011-03-17T13:52:23Z</time>
      </trkpt>
      <trkpt lat="43.61576" lon="5.56394">
        <ele>346</ele>
        <time>2011-03-17T13:52:32Z</time>
      </trkpt>
      <trkpt lat="43.61585" lon="5.56357">
        <ele>343</ele>
        <time>2011-03-17T13:52:41Z</time>
      </trkpt>
      <trkpt lat="43.61582" lon="5.56342">
        <ele>343</ele>
        <time>2011-03-17T13:53:14Z</time>
      </trkpt>
      <trkpt lat="43.61602" lon="5.5631">
        <ele>343</ele>
        <time>2011-03-17T13:53:23Z</time>
      </trkpt>
      <trkpt lat="43.61611" lon="5.56262">
        <ele>342</ele>
        <time>2011-03-17T13:53:32Z</time>
      </trkpt>
      <trkpt lat="43.61588" lon="5.56228">
        <ele>338</ele>
        <time>2011-03-17T13:53:40Z</time>
      </trkpt>
      <trkpt lat="43.61579" lon="5.56169">
        <ele>336</ele>
        <time>2011-03-17T13:53:49Z</time>
      </trkpt>
      <trkpt lat="43.61598" lon="5.56129">
        <ele>335</ele>
        <time>2011-03-17T13:53:58Z</time>
      </trkpt>
      <trkpt lat="43.61639" lon="5.56109">
        <ele>331</ele>
        <time>2011-03-17T13:54:06Z</time>
      </trkpt>
      <trkpt lat="43.61679" lon="5.56064">
        <ele>331</ele>
        <time>2011-03-17T13:54:15Z</time>
      </trkpt>
      <trkpt lat="43.61706" lon="5.56011">
        <ele>329</ele>
        <time>2011-03-17T13:54:24Z</time>
      </trkpt>
      <trkpt lat="43.61711" lon="5.56007">
        <ele>329</ele>
        <time>2011-03-17T13:54:44Z</time>
      </trkpt>
      <trkpt lat="43.61718" lon="5.55997">
        <ele>332</ele>
        <time>2011-03-17T13:54:54Z</time>
      </trkpt>
      <trkpt lat="43.61735" lon="5.55965">
        <ele>332</ele>
        <time>2011-03-17T13:55:03Z</time>
      </trkpt>
      <trkpt lat="43.61764" lon="5.55938">
        <ele>329</ele>
        <time>2011-03-17T13:55:12Z</time>
      </trkpt>
      <trkpt lat="43.61808" lon="5.55926">
        <ele>325</ele>
        <time>2011-03-17T13:55:20Z</time>
      </trkpt>
      <trkpt lat="43.61861" lon="5.5591">
        <ele>320</ele>
        <time>2011-03-17T13:55:29Z</time>
      </trkpt>
      <trkpt lat="43.61884" lon="5.55875">
        <ele>319</ele>
        <time>2011-03-17T13:55:38Z</time>
      </trkpt>
      <trkpt lat="43.61883" lon="5.55858">
        <ele>319</ele>
        <time>2011-03-17T13:55:46Z</time>
      </trkpt>
      <trkpt lat="43.61876" lon="5.55839">
        <ele>319</ele>
        <time>2011-03-17T13:55:55Z</time>
      </trkpt>
      <trkpt lat="43.61862" lon="5.55828">
        <ele>319</ele>
        <time>2011-03-17T13:56:04Z</time>
      </trkpt>
      <trkpt lat="43.61845" lon="5.55824">
        <ele>319</ele>
        <time>2011-03-17T13:56:14Z</time>
      </trkpt>
      <trkpt lat="43.61828" lon="5.55832">
        <ele>320</ele>
        <time>2011-03-17T13:56:33Z</time>
      </trkpt>
      <trkpt lat="43.61805" lon="5.55845">
        <ele>321</ele>
        <time>2011-03-17T13:56:42Z</time>
      </trkpt>
      <trkpt lat="43.61783" lon="5.55855">
        <ele>323</ele>
        <time>2011-03-17T13:56:51Z</time>
      </trkpt>
      <trkpt lat="43.61774" lon="5.55823">
        <ele>323</ele>
        <time>2011-03-17T13:56:59Z</time>
      </trkpt>
      <trkpt lat="43.61775" lon="5.55784">
        <ele>323</ele>
        <time>2011-03-17T13:57:08Z</time>
      </trkpt>
      <trkpt lat="43.6179" lon="5.5576">
        <ele>325</ele>
        <time>2011-03-17T13:57:17Z</time>
      </trkpt>
      <trkpt lat="43.61804" lon="5.55748">
        <ele>327</ele>
        <time>2011-03-17T13:57:25Z</time>
      </trkpt>
      <trkpt lat="43.61818" lon="5.55732">
        <ele>328</ele>
        <time>2011-03-17T13:57:34Z</time>
      </trkpt>
      <trkpt lat="43.61822" lon="5.55706">
        <ele>328</ele>
        <time>2011-03-17T13:57:43Z</time>
      </trkpt>
      <trkpt lat="43.61822" lon="5.55681">
        <ele>331</ele>
        <time>2011-03-17T13:57:51Z</time>
      </trkpt>
      <trkpt lat="43.6182" lon="5.55657">
        <ele>334</ele>
        <time>2011-03-17T13:58:00Z</time>
      </trkpt>
      <trkpt lat="43.61819" lon="5.55635">
        <ele>335</ele>
        <time>2011-03-17T13:58:09Z</time>
      </trkpt>
      <trkpt lat="43.61817" lon="5.55614">
        <ele>337</ele>
        <time>2011-03-17T13:58:18Z</time>
      </trkpt>
      <trkpt lat="43.61819" lon="5.55598">
        <ele>338</ele>
        <time>2011-03-17T13:58:26Z</time>
      </trkpt>
      <trkpt lat="43.61827" lon="5.55581">
        <ele>340</ele>
        <time>2011-03-17T13:58:36Z</time>
      </trkpt>
      <trkpt lat="43.61835" lon="5.55567">
        <ele>341</ele>
        <time>2011-03-17T13:58:45Z</time>
      </trkpt>
      <trkpt lat="43.61847" lon="5.55565">
        <ele>342</ele>
        <time>2011-03-17T13:58:54Z</time>
      </trkpt>
      <trkpt lat="43.61859" lon="5.5558">
        <ele>343</ele>
        <time>2011-03-17T13:59:03Z</time>
      </trkpt>
      <trkpt lat="43.61873" lon="5.55594">
        <ele>345</ele>
        <time>2011-03-17T13:59:12Z</time>
      </trkpt>
      <trkpt lat="43.61886" lon="5.55595">
        <ele>347</ele>
        <time>2011-03-17T13:59:20Z</time>
      </trkpt>
      <trkpt lat="43.619" lon="5.55594">
        <ele>349</ele>
        <time>2011-03-17T13:59:29Z</time>
      </trkpt>
      <trkpt lat="43.61914" lon="5.55592">
        <ele>351</ele>
        <time>2011-03-17T13:59:38Z</time>
      </trkpt>
      <trkpt lat="43.61927" lon="5.55582">
        <ele>352</ele>
        <time>2011-03-17T13:59:48Z</time>
      </trkpt>
      <trkpt lat="43.61939" lon="5.55572">
        <ele>355</ele>
        <time>2011-03-17T13:59:58Z</time>
      </trkpt>
      <trkpt lat="43.61951" lon="5.55561">
        <ele>357</ele>
        <time>2011-03-17T14:00:09Z</time>
      </trkpt>
      <trkpt lat="43.61966" lon="5.55557">
        <ele>360</ele>
        <time>2011-03-17T14:00:19Z</time>
      </trkpt>
      <trkpt lat="43.61977" lon="5.5556">
        <ele>361</ele>
        <time>2011-03-17T14:00:27Z</time>
      </trkpt>
      <trkpt lat="43.6199" lon="5.55561">
        <ele>363</ele>
        <time>2011-03-17T14:00:36Z</time>
      </trkpt>
      <trkpt lat="43.62003" lon="5.5556">
        <ele>364</ele>
        <time>2011-03-17T14:00:47Z</time>
      </trkpt>
      <trkpt lat="43.62015" lon="5.55557">
        <ele>364</ele>
        <time>2011-03-17T14:00:56Z</time>
      </trkpt>
      <trkpt lat="43.62028" lon="5.55556">
        <ele>366</ele>
        <time>2011-03-17T14:01:07Z</time>
      </trkpt>
      <trkpt lat="43.62039" lon="5.55545">
        <ele>368</ele>
        <time>2011-03-17T14:01:17Z</time>
      </trkpt>
      <trkpt lat="43.6205" lon="5.55522">
        <ele>370</ele>
        <time>2011-03-17T14:01:26Z</time>
      </trkpt>
      <trkpt lat="43.62063" lon="5.55498">
        <ele>370</ele>
        <time>2011-03-17T14:01:34Z</time>
      </trkpt>
      <trkpt lat="43.62072" lon="5.55467">
        <ele>371</ele>
        <time>2011-03-17T14:01:43Z</time>
      </trkpt>
      <trkpt lat="43.62074" lon="5.55423">
        <ele>372</ele>
        <time>2011-03-17T14:01:52Z</time>
      </trkpt>
      <trkpt lat="43.62076" lon="5.55386">
        <ele>372</ele>
        <time>2011-03-17T14:02:00Z</time>
      </trkpt>
      <trkpt lat="43.62068" lon="5.55351">
        <ele>372</ele>
        <time>2011-03-17T14:02:09Z</time>
      </trkpt>
      <trkpt lat="43.62066" lon="5.55313">
        <ele>372</ele>
        <time>2011-03-17T14:02:18Z</time>
      </trkpt>
      <trkpt lat="43.62076" lon="5.55279">
        <ele>372</ele>
        <time>2011-03-17T14:02:26Z</time>
      </trkpt>
      <trkpt lat="43.62081" lon="5.55251">
        <ele>372</ele>
        <time>2011-03-17T14:02:35Z</time>
      </trkpt>
      <trkpt lat="43.62091" lon="5.55234">
        <ele>373</ele>
        <time>2011-03-17T14:02:45Z</time>
      </trkpt>
      <trkpt lat="43.621" lon="5.5522">
        <ele>374</ele>
        <time>2011-03-17T14:02:54Z</time>
      </trkpt>
      <trkpt lat="43.62109" lon="5.55205">
        <ele>377</ele>
        <time>2011-03-17T14:03:03Z</time>
      </trkpt>
      <trkpt lat="43.62114" lon="5.55187">
        <ele>380</ele>
        <time>2011-03-17T14:03:12Z</time>
      </trkpt>
      <trkpt lat="43.6212" lon="5.5517">
        <ele>384</ele>
        <time>2011-03-17T14:03:22Z</time>
      </trkpt>
      <trkpt lat="43.62126" lon="5.55154">
        <ele>386</ele>
        <time>2011-03-17T14:03:31Z</time>
      </trkpt>
      <trkpt lat="43.62133" lon="5.55137">
        <ele>386</ele>
        <time>2011-03-17T14:03:40Z</time>
      </trkpt>
      <trkpt lat="43.62141" lon="5.5512">
        <ele>387</ele>
        <time>2011-03-17T14:03:49Z</time>
      </trkpt>
      <trkpt lat="43.62149" lon="5.55103">
        <ele>388</ele>
        <time>2011-03-17T14:03:57Z</time>
      </trkpt>
      <trkpt lat="43.62155" lon="5.55075">
        <ele>389</ele>
        <time>2011-03-17T14:04:06Z</time>
      </trkpt>
      <trkpt lat="43.62165" lon="5.55043">
        <ele>390</ele>
        <time>2011-03-17T14:04:15Z</time>
      </trkpt>
      <trkpt lat="43.62178" lon="5.55017">
        <ele>390</ele>
        <time>2011-03-17T14:04:23Z</time>
      </trkpt>
      <trkpt lat="43.62197" lon="5.54982">
        <ele>392</ele>
        <time>2011-03-17T14:04:32Z</time>
      </trkpt>
      <trkpt lat="43.62204" lon="5.54922">
        <ele>392</ele>
        <time>2011-03-17T14:04:41Z</time>
      </trkpt>
      <trkpt lat="43.62214" lon="5.54863">
        <ele>392</ele>
        <time>2011-03-17T14:04:50Z</time>
      </trkpt>
      <trkpt lat="43.62216" lon="5.54839">
        <ele>392</ele>
        <time>2011-03-17T14:04:58Z</time>
      </trkpt>
      <trkpt lat="43.62202" lon="5.54831">
        <ele>392</ele>
        <time>2011-03-17T14:05:07Z</time>
      </trkpt>
      <trkpt lat="43.62179" lon="5.54841">
        <ele>392</ele>
        <time>2011-03-17T14:05:16Z</time>
      </trkpt>
      <trkpt lat="43.62159" lon="5.54837">
        <ele>392</ele>
        <time>2011-03-17T14:05:24Z</time>
      </trkpt>
      <trkpt lat="43.62146" lon="5.54823">
        <ele>392</ele>
        <time>2011-03-17T14:05:33Z</time>
      </trkpt>
      <trkpt lat="43.62138" lon="5.54805">
        <ele>392</ele>
        <time>2011-03-17T14:05:42Z</time>
      </trkpt>
      <trkpt lat="43.62131" lon="5.54792">
        <ele>395</ele>
        <time>2011-03-17T14:05:50Z</time>
      </trkpt>
      <trkpt lat="43.62117" lon="5.54777">
        <ele>397</ele>
        <time>2011-03-17T14:06:13Z</time>
      </trkpt>
      <trkpt lat="43.62105" lon="5.54769">
        <ele>398</ele>
        <time>2011-03-17T14:06:22Z</time>
      </trkpt>
      <trkpt lat="43.62093" lon="5.54764">
        <ele>399</ele>
        <time>2011-03-17T14:06:30Z</time>
      </trkpt>
      <trkpt lat="43.62078" lon="5.54759">
        <ele>401</ele>
        <time>2011-03-17T14:06:39Z</time>
      </trkpt>
      <trkpt lat="43.62065" lon="5.54755">
        <ele>403</ele>
        <time>2011-03-17T14:06:48Z</time>
      </trkpt>
      <trkpt lat="43.62051" lon="5.54744">
        <ele>404</ele>
        <time>2011-03-17T14:06:57Z</time>
      </trkpt>
      <trkpt lat="43.62041" lon="5.54734">
        <ele>404</ele>
        <time>2011-03-17T14:07:05Z</time>
      </trkpt>
      <trkpt lat="43.6203" lon="5.54722">
        <ele>404</ele>
        <time>2011-03-17T14:07:14Z</time>
      </trkpt>
      <trkpt lat="43.62017" lon="5.54713">
        <ele>406</ele>
        <time>2011-03-17T14:07:23Z</time>
      </trkpt>
      <trkpt lat="43.62002" lon="5.54701">
        <ele>410</ele>
        <time>2011-03-17T14:07:31Z</time>
      </trkpt>
      <trkpt lat="43.6198" lon="5.54697">
        <ele>413</ele>
        <time>2011-03-17T14:07:40Z</time>
      </trkpt>
      <trkpt lat="43.61956" lon="5.54702">
        <ele>414</ele>
        <time>2011-03-17T14:07:49Z</time>
      </trkpt>
      <trkpt lat="43.61938" lon="5.54705">
        <ele>417</ele>
        <time>2011-03-17T14:07:57Z</time>
      </trkpt>
      <trkpt lat="43.6192" lon="5.54701">
        <ele>419</ele>
        <time>2011-03-17T14:08:06Z</time>
      </trkpt>
      <trkpt lat="43.61905" lon="5.5469">
        <ele>420</ele>
        <time>2011-03-17T14:08:15Z</time>
      </trkpt>
      <trkpt lat="43.6189" lon="5.54676">
        <ele>420</ele>
        <time>2011-03-17T14:08:24Z</time>
      </trkpt>
      <trkpt lat="43.61873" lon="5.54666">
        <ele>422</ele>
        <time>2011-03-17T14:08:32Z</time>
      </trkpt>
      <trkpt lat="43.61854" lon="5.54658">
        <ele>424</ele>
        <time>2011-03-17T14:08:41Z</time>
      </trkpt>
      <trkpt lat="43.61836" lon="5.54651">
        <ele>427</ele>
        <time>2011-03-17T14:08:50Z</time>
      </trkpt>
      <trkpt lat="43.6182" lon="5.54646">
        <ele>429</ele>
        <time>2011-03-17T14:08:58Z</time>
      </trkpt>
      <trkpt lat="43.61799" lon="5.54641">
        <ele>431</ele>
        <time>2011-03-17T14:09:07Z</time>
      </trkpt>
      <trkpt lat="43.61769" lon="5.54633">
        <ele>432</ele>
        <time>2011-03-17T14:09:16Z</time>
      </trkpt>
      <trkpt lat="43.61736" lon="5.54627">
        <ele>432</ele>
        <time>2011-03-17T14:09:24Z</time>
      </trkpt>
      <trkpt lat="43.61701" lon="5.5463">
        <ele>432</ele>
        <time>2011-03-17T14:09:33Z</time>
      </trkpt>
      <trkpt lat="43.61668" lon="5.54639">
        <ele>432</ele>
        <time>2011-03-17T14:09:42Z</time>
      </trkpt>
      <trkpt lat="43.61643" lon="5.54654">
        <ele>433</ele>
        <time>2011-03-17T14:09:51Z</time>
      </trkpt>
      <trkpt lat="43.61627" lon="5.5467">
        <ele>435</ele>
        <time>2011-03-17T14:09:59Z</time>
      </trkpt>
      <trkpt lat="43.61609" lon="5.54689">
        <ele>438</ele>
        <time>2011-03-17T14:10:08Z</time>
      </trkpt>
      <trkpt lat="43.61592" lon="5.54699">
        <ele>439</ele>
        <time>2011-03-17T14:10:17Z</time>
      </trkpt>
      <trkpt lat="43.61565" lon="5.54707">
        <ele>440</ele>
        <time>2011-03-17T14:10:25Z</time>
      </trkpt>
      <trkpt lat="43.61533" lon="5.54717">
        <ele>440</ele>
        <time>2011-03-17T14:10:34Z</time>
      </trkpt>
      <trkpt lat="43.61498" lon="5.54728">
        <ele>440</ele>
        <time>2011-03-17T14:10:43Z</time>
      </trkpt>
      <trkpt lat="43.61466" lon="5.54739">
        <ele>440</ele>
        <time>2011-03-17T14:10:51Z</time>
      </trkpt>
      <trkpt lat="43.61432" lon="5.54747">
        <ele>440</ele>
        <time>2011-03-17T14:11:00Z</time>
      </trkpt>
      <trkpt lat="43.61401" lon="5.54754">
        <ele>442</ele>
        <time>2011-03-17T14:11:09Z</time>
      </trkpt>
      <trkpt lat="43.61374" lon="5.54753">
        <ele>442</ele>
        <time>2011-03-17T14:11:17Z</time>
      </trkpt>
      <trkpt lat="43.61363" lon="5.54743">
        <ele>443</ele>
        <time>2011-03-17T14:11:52Z</time>
      </trkpt>
      <trkpt lat="43.61376" lon="5.54715">
        <ele>443</ele>
        <time>2011-03-17T14:12:01Z</time>
      </trkpt>
      <trkpt lat="43.61404" lon="5.54671">
        <ele>440</ele>
        <time>2011-03-17T14:12:10Z</time>
      </trkpt>
      <trkpt lat="43.61362" lon="5.54691">
        <ele>434</ele>
        <time>2011-03-17T14:12:18Z</time>
      </trkpt>
      <trkpt lat="43.61311" lon="5.54661">
        <ele>427</ele>
        <time>2011-03-17T14:12:27Z</time>
      </trkpt>
      <trkpt lat="43.61292" lon="5.54613">
        <ele>421</ele>
        <time>2011-03-17T14:12:36Z</time>
      </trkpt>
      <trkpt lat="43.61293" lon="5.54565">
        <ele>414</ele>
        <time>2011-03-17T14:12:44Z</time>
      </trkpt>
      <trkpt lat="43.61243" lon="5.54562">
        <ele>410</ele>
        <time>2011-03-17T14:12:53Z</time>
      </trkpt>
      <trkpt lat="43.61281" lon="5.54511">
        <ele>404</ele>
        <time>2011-03-17T14:13:02Z</time>
      </trkpt>
      <trkpt lat="43.61304" lon="5.54493">
        <ele>399</ele>
        <time>2011-03-17T14:13:21Z</time>
      </trkpt>
      <trkpt lat="43.61342" lon="5.54501">
        <ele>395</ele>
        <time>2011-03-17T14:13:30Z</time>
      </trkpt>
      <trkpt lat="43.61394" lon="5.54489">
        <ele>389</ele>
        <time>2011-03-17T14:13:39Z</time>
      </trkpt>
      <trkpt lat="43.61435" lon="5.54454">
        <ele>380</ele>
        <time>2011-03-17T14:13:48Z</time>
      </trkpt>
      <trkpt lat="43.61474" lon="5.54446">
        <ele>375</ele>
        <time>2011-03-17T14:13:56Z</time>
      </trkpt>
      <trkpt lat="43.61522" lon="5.54434">
        <ele>371</ele>
        <time>2011-03-17T14:14:05Z</time>
      </trkpt>
      <trkpt lat="43.61558" lon="5.54401">
        <ele>368</ele>
        <time>2011-03-17T14:14:14Z</time>
      </trkpt>
      <trkpt lat="43.61581" lon="5.54356">
        <ele>360</ele>
        <time>2011-03-17T14:14:22Z</time>
      </trkpt>
      <trkpt lat="43.61608" lon="5.54297">
        <ele>355</ele>
        <time>2011-03-17T14:14:31Z</time>
      </trkpt>
      <trkpt lat="43.61618" lon="5.54225">
        <ele>352</ele>
        <time>2011-03-17T14:14:40Z</time>
      </trkpt>
      <trkpt lat="43.61602" lon="5.54156">
        <ele>351</ele>
        <time>2011-03-17T14:14:48Z</time>
      </trkpt>
      <trkpt lat="43.61597" lon="5.54131">
        <ele>351</ele>
        <time>2011-03-17T14:15:06Z</time>
      </trkpt>
      <trkpt lat="43.61605" lon="5.54098">
        <ele>351</ele>
        <time>2011-03-17T14:15:15Z</time>
      </trkpt>
      <trkpt lat="43.61628" lon="5.54059">
        <ele>350</ele>
        <time>2011-03-17T14:15:23Z</time>
      </trkpt>
      <trkpt lat="43.61678" lon="5.54058">
        <ele>344</ele>
        <time>2011-03-17T14:15:32Z</time>
      </trkpt>
      <trkpt lat="43.6173" lon="5.54057">
        <ele>341</ele>
        <time>2011-03-17T14:15:41Z</time>
      </trkpt>
      <trkpt lat="43.6177" lon="5.54054">
        <ele>341</ele>
        <time>2011-03-17T14:15:50Z</time>
      </trkpt>
      <trkpt lat="43.61799" lon="5.54034">
        <ele>339</ele>
        <time>2011-03-17T14:15:58Z</time>
      </trkpt>
      <trkpt lat="43.61809" lon="5.54">
        <ele>334</ele>
        <time>2011-03-17T14:16:07Z</time>
      </trkpt>
      <trkpt lat="43.61793" lon="5.54004">
        <ele>333</ele>
        <time>2011-03-17T14:16:28Z</time>
      </trkpt>
      <trkpt lat="43.61774" lon="5.54009">
        <ele>333</ele>
        <time>2011-03-17T14:16:36Z</time>
      </trkpt>
      <trkpt lat="43.61753" lon="5.54011">
        <ele>333</ele>
        <time>2011-03-17T14:16:45Z</time>
      </trkpt>
      <trkpt lat="43.61732" lon="5.54014">
        <ele>333</ele>
        <time>2011-03-17T14:16:54Z</time>
      </trkpt>
      <trkpt lat="43.61712" lon="5.5401">
        <ele>335</ele>
        <time>2011-03-17T14:17:02Z</time>
      </trkpt>
      <trkpt lat="43.61687" lon="5.54008">
        <ele>337</ele>
        <time>2011-03-17T14:17:11Z</time>
      </trkpt>
      <trkpt lat="43.6166" lon="5.54012">
        <ele>338</ele>
        <time>2011-03-17T14:17:20Z</time>
      </trkpt>
      <trkpt lat="43.61638" lon="5.54013">
        <ele>340</ele>
        <time>2011-03-17T14:17:29Z</time>
      </trkpt>
      <trkpt lat="43.61621" lon="5.5401">
        <ele>341</ele>
        <time>2011-03-17T14:17:37Z</time>
      </trkpt>
      <trkpt lat="43.61603" lon="5.53998">
        <ele>344</ele>
        <time>2011-03-17T14:17:46Z</time>
      </trkpt>
      <trkpt lat="43.6159" lon="5.53983">
        <ele>346</ele>
        <time>2011-03-17T14:17:55Z</time>
      </trkpt>
      <trkpt lat="43.61576" lon="5.5397">
        <ele>347</ele>
        <time>2011-03-17T14:18:03Z</time>
      </trkpt>
      <trkpt lat="43.6156" lon="5.53948">
        <ele>347</ele>
        <time>2011-03-17T14:18:12Z</time>
      </trkpt>
      <trkpt lat="43.6155" lon="5.5392">
        <ele>348</ele>
        <time>2011-03-17T14:18:21Z</time>
      </trkpt>
      <trkpt lat="43.61539" lon="5.53894">
        <ele>349</ele>
        <time>2011-03-17T14:18:29Z</time>
      </trkpt>
      <trkpt lat="43.61525" lon="5.53872">
        <ele>352</ele>
        <time>2011-03-17T14:18:38Z</time>
      </trkpt>
      <trkpt lat="43.61511" lon="5.53854">
        <ele>353</ele>
        <time>2011-03-17T14:18:47Z</time>
      </trkpt>
      <trkpt lat="43.61494" lon="5.53838">
        <ele>353</ele>
        <time>2011-03-17T14:18:56Z</time>
      </trkpt>
      <trkpt lat="43.61477" lon="5.53831">
        <ele>355</ele>
        <time>2011-03-17T14:19:04Z</time>
      </trkpt>
      <trkpt lat="43.61456" lon="5.53831">
        <ele>358</ele>
        <time>2011-03-17T14:19:13Z</time>
      </trkpt>
      <trkpt lat="43.61431" lon="5.53845">
        <ele>359</ele>
        <time>2011-03-17T14:19:22Z</time>
      </trkpt>
      <trkpt lat="43.6141" lon="5.53857">
        <ele>359</ele>
        <time>2011-03-17T14:19:30Z</time>
      </trkpt>
      <trkpt lat="43.61385" lon="5.53856">
        <ele>359</ele>
        <time>2011-03-17T14:19:39Z</time>
      </trkpt>
      <trkpt lat="43.61357" lon="5.53851">
        <ele>359</ele>
        <time>2011-03-17T14:19:48Z</time>
      </trkpt>
      <trkpt lat="43.61332" lon="5.53841">
        <ele>359</ele>
        <time>2011-03-17T14:19:56Z</time>
      </trkpt>
      <trkpt lat="43.61306" lon="5.53824">
        <ele>359</ele>
        <time>2011-03-17T14:20:05Z</time>
      </trkpt>
      <trkpt lat="43.61283" lon="5.5381">
        <ele>360</ele>
        <time>2011-03-17T14:20:14Z</time>
      </trkpt>
      <trkpt lat="43.61265" lon="5.53797">
        <ele>363</ele>
        <time>2011-03-17T14:20:22Z</time>
      </trkpt>
      <trkpt lat="43.61245" lon="5.53784">
        <ele>365</ele>
        <time>2011-03-17T14:20:31Z</time>
      </trkpt>
      <trkpt lat="43.61225" lon="5.53766">
        <ele>366</ele>
        <time>2011-03-17T14:20:40Z</time>
      </trkpt>
      <trkpt lat="43.61205" lon="5.53748">
        <ele>368</ele>
        <time>2011-03-17T14:20:49Z</time>
      </trkpt>
      <trkpt lat="43.61189" lon="5.53733">
        <ele>368</ele>
        <time>2011-03-17T14:20:57Z</time>
      </trkpt>
      <trkpt lat="43.61171" lon="5.53716">
        <ele>370</ele>
        <time>2011-03-17T14:21:06Z</time>
      </trkpt>
      <trkpt lat="43.61156" lon="5.53701">
        <ele>374</ele>
        <time>2011-03-17T14:21:15Z</time>
      </trkpt>
      <trkpt lat="43.6114" lon="5.53692">
        <ele>376</ele>
        <time>2011-03-17T14:21:23Z</time>
      </trkpt>
      <trkpt lat="43.61121" lon="5.53688">
        <ele>380</ele>
        <time>2011-03-17T14:21:32Z</time>
      </trkpt>
      <trkpt lat="43.61098" lon="5.53689">
        <ele>380</ele>
        <time>2011-03-17T14:21:41Z</time>
      </trkpt>
      <trkpt lat="43.61076" lon="5.53688">
        <ele>380</ele>
        <time>2011-03-17T14:21:49Z</time>
      </trkpt>
      <trkpt lat="43.61047" lon="5.53694">
        <ele>380</ele>
        <time>2011-03-17T14:21:58Z</time>
      </trkpt>
      <trkpt lat="43.6102" lon="5.53712">
        <ele>380</ele>
        <time>2011-03-17T14:22:07Z</time>
      </trkpt>
      <trkpt lat="43.60999" lon="5.53745">
        <ele>380</ele>
        <time>2011-03-17T14:22:16Z</time>
      </trkpt>
      <trkpt lat="43.60976" lon="5.53774">
        <ele>380</ele>
        <time>2011-03-17T14:22:24Z</time>
      </trkpt>
      <trkpt lat="43.60957" lon="5.53798">
        <ele>380</ele>
        <time>2011-03-17T14:22:33Z</time>
      </trkpt>
      <trkpt lat="43.60939" lon="5.53815">
        <ele>380</ele>
        <time>2011-03-17T14:22:42Z</time>
      </trkpt>
      <trkpt lat="43.60928" lon="5.53826">
        <ele>381</ele>
        <time>2011-03-17T14:22:50Z</time>
      </trkpt>
      <trkpt lat="43.60912" lon="5.53826">
        <ele>381</ele>
        <time>2011-03-17T14:22:59Z</time>
      </trkpt>
      <trkpt lat="43.60898" lon="5.53818">
        <ele>383</ele>
        <time>2011-03-17T14:23:08Z</time>
      </trkpt>
      <trkpt lat="43.60887" lon="5.53816">
        <ele>385</ele>
        <time>2011-03-17T14:23:16Z</time>
      </trkpt>
      <trkpt lat="43.6087" lon="5.53818">
        <ele>387</ele>
        <time>2011-03-17T14:23:25Z</time>
      </trkpt>
      <trkpt lat="43.60847" lon="5.53818">
        <ele>389</ele>
        <time>2011-03-17T14:23:34Z</time>
      </trkpt>
      <trkpt lat="43.60825" lon="5.53824">
        <ele>389</ele>
        <time>2011-03-17T14:23:42Z</time>
      </trkpt>
      <trkpt lat="43.60802" lon="5.53825">
        <ele>391</ele>
        <time>2011-03-17T14:23:51Z</time>
      </trkpt>
      <trkpt lat="43.60782" lon="5.53825">
        <ele>392</ele>
        <time>2011-03-17T14:24:00Z</time>
      </trkpt>
      <trkpt lat="43.6076" lon="5.53827">
        <ele>393</ele>
        <time>2011-03-17T14:24:09Z</time>
      </trkpt>
      <trkpt lat="43.60741" lon="5.53831">
        <ele>393</ele>
        <time>2011-03-17T14:24:17Z</time>
      </trkpt>
      <trkpt lat="43.60717" lon="5.53834">
        <ele>393</ele>
        <time>2011-03-17T14:24:26Z</time>
      </trkpt>
      <trkpt lat="43.60679" lon="5.53838">
        <ele>393</ele>
        <time>2011-03-17T14:24:35Z</time>
      </trkpt>
      <trkpt lat="43.60648" lon="5.5384">
        <ele>393</ele>
        <time>2011-03-17T14:24:43Z</time>
      </trkpt>
      <trkpt lat="43.60617" lon="5.5383">
        <ele>393</ele>
        <time>2011-03-17T14:24:52Z</time>
      </trkpt>
      <trkpt lat="43.60598" lon="5.5381">
        <ele>396</ele>
        <time>2011-03-17T14:25:01Z</time>
      </trkpt>
      <trkpt lat="43.6058" lon="5.53796">
        <ele>396</ele>
        <time>2011-03-17T14:25:09Z</time>
      </trkpt>
      <trkpt lat="43.60554" lon="5.53773">
        <ele>396</ele>
        <time>2011-03-17T14:25:18Z</time>
      </trkpt>
      <trkpt lat="43.60512" lon="5.53771">
        <ele>396</ele>
        <time>2011-03-17T14:25:27Z</time>
      </trkpt>
      <trkpt lat="43.60463" lon="5.53765">
        <ele>396</ele>
        <time>2011-03-17T14:25:36Z</time>
      </trkpt>
      <trkpt lat="43.60433" lon="5.53762">
        <ele>396</ele>
        <time>2011-03-17T14:25:44Z</time>
      </trkpt>
      <trkpt lat="43.60396" lon="5.53769">
        <ele>396</ele>
        <time>2011-03-17T14:25:53Z</time>
      </trkpt>
      <trkpt lat="43.60373" lon="5.53766">
        <ele>396</ele>
        <time>2011-03-17T14:26:02Z</time>
      </trkpt>
      <trkpt lat="43.60355" lon="5.53742">
        <ele>398</ele>
        <time>2011-03-17T14:26:10Z</time>
      </trkpt>
      <trkpt lat="43.60347" lon="5.53715">
        <ele>405</ele>
        <time>2011-03-17T14:26:19Z</time>
      </trkpt>
      <trkpt lat="43.60346" lon="5.53692">
        <ele>406</ele>
        <time>2011-03-17T14:26:28Z</time>
      </trkpt>
      <trkpt lat="43.60348" lon="5.53674">
        <ele>408</ele>
        <time>2011-03-17T14:26:36Z</time>
      </trkpt>
      <trkpt lat="43.60352" lon="5.53653">
        <ele>409</ele>
        <time>2011-03-17T14:26:45Z</time>
      </trkpt>
      <trkpt lat="43.60362" lon="5.53636">
        <ele>409</ele>
        <time>2011-03-17T14:26:54Z</time>
      </trkpt>
      <trkpt lat="43.60371" lon="5.53618">
        <ele>409</ele>
        <time>2011-03-17T14:27:03Z</time>
      </trkpt>
      <trkpt lat="43.60376" lon="5.53601">
        <ele>409</ele>
        <time>2011-03-17T14:27:12Z</time>
      </trkpt>
      <trkpt lat="43.60381" lon="5.53585">
        <ele>413</ele>
        <time>2011-03-17T14:27:48Z</time>
      </trkpt>
      <trkpt lat="43.604" lon="5.53565">
        <ele>413</ele>
        <time>2011-03-17T14:27:57Z</time>
      </trkpt>
      <trkpt lat="43.60407" lon="5.53539">
        <ele>413</ele>
        <time>2011-03-17T14:28:05Z</time>
      </trkpt>
      <trkpt lat="43.60435" lon="5.53507">
        <ele>413</ele>
        <time>2011-03-17T14:28:14Z</time>
      </trkpt>
      <trkpt lat="43.60427" lon="5.53462">
        <ele>409</ele>
        <time>2011-03-17T14:28:23Z</time>
      </trkpt>
      <trkpt lat="43.60402" lon="5.53429">
        <ele>401</ele>
        <time>2011-03-17T14:28:31Z</time>
      </trkpt>
      <trkpt lat="43.60373" lon="5.5343">
        <ele>392</ele>
        <time>2011-03-17T14:28:40Z</time>
      </trkpt>
      <trkpt lat="43.60338" lon="5.53402">
        <ele>383</ele>
        <time>2011-03-17T14:28:49Z</time>
      </trkpt>
      <trkpt lat="43.6031" lon="5.5335">
        <ele>374</ele>
        <time>2011-03-17T14:28:57Z</time>
      </trkpt>
      <trkpt lat="43.60295" lon="5.53277">
        <ele>364</ele>
        <time>2011-03-17T14:29:06Z</time>
      </trkpt>
      <trkpt lat="43.6027" lon="5.53212">
        <ele>351</ele>
        <time>2011-03-17T14:29:15Z</time>
      </trkpt>
      <trkpt lat="43.60273" lon="5.53189">
        <ele>345</ele>
        <time>2011-03-17T14:29:41Z</time>
      </trkpt>
      <trkpt lat="43.60285" lon="5.53167">
        <ele>345</ele>
        <time>2011-03-17T14:29:49Z</time>
      </trkpt>
      <trkpt lat="43.60302" lon="5.53132">
        <ele>343</ele>
        <time>2011-03-17T14:29:58Z</time>
      </trkpt>
      <trkpt lat="43.60311" lon="5.53075">
        <ele>336</ele>
        <time>2011-03-17T14:30:07Z</time>
      </trkpt>
      <trkpt lat="43.60328" lon="5.53029">
        <ele>329</ele>
        <time>2011-03-17T14:30:15Z</time>
      </trkpt>
      <trkpt lat="43.60335" lon="5.52967">
        <ele>323</ele>
        <time>2011-03-17T14:30:24Z</time>
      </trkpt>
      <trkpt lat="43.60351" lon="5.5292">
        <ele>319</ele>
        <time>2011-03-17T14:30:33Z</time>
      </trkpt>
      <trkpt lat="43.60372" lon="5.52879">
        <ele>314</ele>
        <time>2011-03-17T14:30:41Z</time>
      </trkpt>
      <trkpt lat="43.60397" lon="5.52816">
        <ele>313</ele>
        <time>2011-03-17T14:30:50Z</time>
      </trkpt>
      <trkpt lat="43.60431" lon="5.52768">
        <ele>312</ele>
        <time>2011-03-17T14:30:59Z</time>
      </trkpt>
      <trkpt lat="43.60465" lon="5.52728">
        <ele>308</ele>
        <time>2011-03-17T14:31:08Z</time>
      </trkpt>
      <trkpt lat="43.60495" lon="5.52702">
        <ele>308</ele>
        <time>2011-03-17T14:31:16Z</time>
      </trkpt>
      <trkpt lat="43.60508" lon="5.52683">
        <ele>308</ele>
        <time>2011-03-17T14:31:26Z</time>
      </trkpt>
      <trkpt lat="43.60529" lon="5.5263">
        <ele>307</ele>
        <time>2011-03-17T14:31:35Z</time>
      </trkpt>
      <trkpt lat="43.60551" lon="5.52584">
        <ele>303</ele>
        <time>2011-03-17T14:31:43Z</time>
      </trkpt>
      <trkpt lat="43.60561" lon="5.52553">
        <ele>300</ele>
        <time>2011-03-17T14:31:52Z</time>
      </trkpt>
      <trkpt lat="43.60561" lon="5.52506">
        <ele>297</ele>
        <time>2011-03-17T14:32:01Z</time>
      </trkpt>
      <trkpt lat="43.60577" lon="5.52491">
        <ele>292</ele>
        <time>2011-03-17T14:32:09Z</time>
      </trkpt>
      <trkpt lat="43.60581" lon="5.52458">
        <ele>287</ele>
        <time>2011-03-17T14:32:18Z</time>
      </trkpt>
      <trkpt lat="43.60589" lon="5.52415">
        <ele>283</ele>
        <time>2011-03-17T14:32:27Z</time>
      </trkpt>
      <trkpt lat="43.60604" lon="5.52361">
        <ele>283</ele>
        <time>2011-03-17T14:32:35Z</time>
      </trkpt>
      <trkpt lat="43.60605" lon="5.52319">
        <ele>282</ele>
        <time>2011-03-17T14:32:44Z</time>
      </trkpt>
      <trkpt lat="43.60607" lon="5.52288">
        <ele>282</ele>
        <time>2011-03-17T14:32:53Z</time>
      </trkpt>
      <trkpt lat="43.60612" lon="5.52249">
        <ele>282</ele>
        <time>2011-03-17T14:33:02Z</time>
      </trkpt>
      <trkpt lat="43.60617" lon="5.5221">
        <ele>282</ele>
        <time>2011-03-17T14:33:10Z</time>
      </trkpt>
      <trkpt lat="43.60622" lon="5.52167">
        <ele>282</ele>
        <time>2011-03-17T14:33:19Z</time>
      </trkpt>
      <trkpt lat="43.60628" lon="5.52125">
        <ele>282</ele>
        <time>2011-03-17T14:33:28Z</time>
      </trkpt>
      <trkpt lat="43.60632" lon="5.52089">
        <ele>282</ele>
        <time>2011-03-17T14:33:36Z</time>
      </trkpt>
      <trkpt lat="43.60651" lon="5.52061">
        <ele>282</ele>
        <time>2011-03-17T14:33:45Z</time>
      </trkpt>
      <trkpt lat="43.60671" lon="5.52026">
        <ele>280</ele>
        <time>2011-03-17T14:33:54Z</time>
      </trkpt>
      <trkpt lat="43.60676" lon="5.51983">
        <ele>278</ele>
        <time>2011-03-17T14:34:02Z</time>
      </trkpt>
      <trkpt lat="43.60679" lon="5.51968">
        <ele>276</ele>
        <time>2011-03-17T14:34:31Z</time>
      </trkpt>
      <trkpt lat="43.60684" lon="5.51941">
        <ele>274</ele>
        <time>2011-03-17T14:34:40Z</time>
      </trkpt>
      <trkpt lat="43.60691" lon="5.51922">
        <ele>274</ele>
        <time>2011-03-17T14:34:49Z</time>
      </trkpt>
      <trkpt lat="43.60685" lon="5.51904">
        <ele>274</ele>
        <time>2011-03-17T14:34:57Z</time>
      </trkpt>
      <trkpt lat="43.60671" lon="5.51892">
        <ele>274</ele>
        <time>2011-03-17T14:35:06Z</time>
      </trkpt>
      <trkpt lat="43.60653" lon="5.51873">
        <ele>274</ele>
        <time>2011-03-17T14:35:15Z</time>
      </trkpt>
      <trkpt lat="43.60632" lon="5.51855">
        <ele>275</ele>
        <time>2011-03-17T14:35:23Z</time>
      </trkpt>
      <trkpt lat="43.60605" lon="5.51831">
        <ele>275</ele>
        <time>2011-03-17T14:35:32Z</time>
      </trkpt>
      <trkpt lat="43.6058" lon="5.51805">
        <ele>276</ele>
        <time>2011-03-17T14:35:41Z</time>
      </trkpt>
      <trkpt lat="43.60555" lon="5.5178">
        <ele>278</ele>
        <time>2011-03-17T14:35:49Z</time>
      </trkpt>
      <trkpt lat="43.60528" lon="5.51748">
        <ele>278</ele>
        <time>2011-03-17T14:35:58Z</time>
      </trkpt>
      <trkpt lat="43.60502" lon="5.51717">
        <ele>278</ele>
        <time>2011-03-17T14:36:07Z</time>
      </trkpt>
      <trkpt lat="43.60472" lon="5.51688">
        <ele>278</ele>
        <time>2011-03-17T14:36:16Z</time>
      </trkpt>
      <trkpt lat="43.60448" lon="5.51666">
        <ele>278</ele>
        <time>2011-03-17T14:36:24Z</time>
      </trkpt>
      <trkpt lat="43.60423" lon="5.51648">
        <ele>278</ele>
        <time>2011-03-17T14:36:33Z</time>
      </trkpt>
      <trkpt lat="43.604" lon="5.51633">
        <ele>278</ele>
        <time>2011-03-17T14:36:42Z</time>
      </trkpt>
      <trkpt lat="43.60372" lon="5.5162">
        <ele>278</ele>
        <time>2011-03-17T14:36:50Z</time>
      </trkpt>
      <trkpt lat="43.60345" lon="5.51604">
        <ele>278</ele>
        <time>2011-03-17T14:36:59Z</time>
      </trkpt>
      <trkpt lat="43.60317" lon="5.51601">
        <ele>278</ele>
        <time>2011-03-17T14:37:08Z</time>
      </trkpt>
      <trkpt lat="43.60294" lon="5.51607">
        <ele>278</ele>
        <time>2011-03-17T14:37:16Z</time>
      </trkpt>
      <trkpt lat="43.60266" lon="5.51624">
        <ele>278</ele>
        <time>2011-03-17T14:37:25Z</time>
      </trkpt>
      <trkpt lat="43.60236" lon="5.51631">
        <ele>278</ele>
        <time>2011-03-17T14:37:34Z</time>
      </trkpt>
      <trkpt lat="43.60209" lon="5.5163">
        <ele>278</ele>
        <time>2011-03-17T14:37:42Z</time>
      </trkpt>
      <trkpt lat="43.60177" lon="5.51645">
        <ele>278</ele>
        <time>2011-03-17T14:37:51Z</time>
      </trkpt>
      <trkpt lat="43.60145" lon="5.51665">
        <ele>279</ele>
        <time>2011-03-17T14:38:00Z</time>
      </trkpt>
      <trkpt lat="43.60112" lon="5.51685">
        <ele>279</ele>
        <time>2011-03-17T14:38:09Z</time>
      </trkpt>
      <trkpt lat="43.60082" lon="5.51703">
        <ele>280</ele>
        <time>2011-03-17T14:38:17Z</time>
      </trkpt>
      <trkpt lat="43.60047" lon="5.51713">
        <ele>280</ele>
        <time>2011-03-17T14:38:26Z</time>
      </trkpt>
      <trkpt lat="43.60011" lon="5.5172">
        <ele>280</ele>
        <time>2011-03-17T14:38:35Z</time>
      </trkpt>
      <trkpt lat="43.59987" lon="5.51752">
        <ele>281</ele>
        <time>2011-03-17T14:38:43Z</time>
      </trkpt>
      <trkpt lat="43.59968" lon="5.51791">
        <ele>281</ele>
        <time>2011-03-17T14:38:52Z</time>
      </trkpt>
      <trkpt lat="43.59943" lon="5.51823">
        <ele>283</ele>
        <time>2011-03-17T14:39:01Z</time>
      </trkpt>
      <trkpt lat="43.59913" lon="5.51843">
        <ele>284</ele>
        <time>2011-03-17T14:39:09Z</time>
      </trkpt>
      <trkpt lat="43.5988" lon="5.51852">
        <ele>284</ele>
        <time>2011-03-17T14:39:18Z</time>
      </trkpt>
      <trkpt lat="43.59844" lon="5.51856">
        <ele>284</ele>
        <time>2011-03-17T14:39:27Z</time>
      </trkpt>
      <trkpt lat="43.59808" lon="5.51859">
        <ele>284</ele>
        <time>2011-03-17T14:39:36Z</time>
      </trkpt>
      <trkpt lat="43.59768" lon="5.51856">
        <ele>284</ele>
        <time>2011-03-17T14:39:44Z</time>
      </trkpt>
      <trkpt lat="43.59737" lon="5.51864">
        <ele>285</ele>
        <time>2011-03-17T14:39:53Z</time>
      </trkpt>
      <trkpt lat="43.59721" lon="5.51859">
        <ele>285</ele>
        <time>2011-03-17T14:40:02Z</time>
      </trkpt>
      <trkpt lat="43.59707" lon="5.51851">
        <ele>285</ele>
        <time>2011-03-17T14:40:10Z</time>
      </trkpt>
      <trkpt lat="43.59685" lon="5.51837">
        <ele>286</ele>
        <time>2011-03-17T14:40:19Z</time>
      </trkpt>
      <trkpt lat="43.59661" lon="5.5182">
        <ele>288</ele>
        <time>2011-03-17T14:40:28Z</time>
      </trkpt>
      <trkpt lat="43.59641" lon="5.51805">
        <ele>290</ele>
        <time>2011-03-17T14:40:36Z</time>
      </trkpt>
      <trkpt lat="43.59613" lon="5.51778">
        <ele>290</ele>
        <time>2011-03-17T14:40:45Z</time>
      </trkpt>
      <trkpt lat="43.59589" lon="5.51753">
        <ele>290</ele>
        <time>2011-03-17T14:40:54Z</time>
      </trkpt>
      <trkpt lat="43.5957" lon="5.51728">
        <ele>290</ele>
        <time>2011-03-17T14:41:02Z</time>
      </trkpt>
      <trkpt lat="43.59554" lon="5.51721">
        <ele>290</ele>
        <time>2011-03-17T14:41:11Z</time>
      </trkpt>
      <trkpt lat="43.59543" lon="5.51711">
        <ele>290</ele>
        <time>2011-03-17T14:41:25Z</time>
      </trkpt>
      <trkpt lat="43.59526" lon="5.51709">
        <ele>290</ele>
        <time>2011-03-17T14:41:34Z</time>
      </trkpt>
      <trkpt lat="43.59508" lon="5.51698">
        <ele>290</ele>
        <time>2011-03-17T14:41:42Z</time>
      </trkpt>
      <trkpt lat="43.59488" lon="5.51672">
        <ele>290</ele>
        <time>2011-03-17T14:41:51Z</time>
      </trkpt>
      <trkpt lat="43.59464" lon="5.51655">
        <ele>290</ele>
        <time>2011-03-17T14:42:00Z</time>
      </trkpt>
      <trkpt lat="43.59442" lon="5.51646">
        <ele>290</ele>
        <time>2011-03-17T14:42:08Z</time>
      </trkpt>
      <trkpt lat="43.59416" lon="5.51641">
        <ele>292</ele>
        <time>2011-03-17T14:42:17Z</time>
      </trkpt>
      <trkpt lat="43.59396" lon="5.51624">
        <ele>293</ele>
        <time>2011-03-17T14:42:26Z</time>
      </trkpt>
      <trkpt lat="43.59377" lon="5.51603">
        <ele>293</ele>
        <time>2011-03-17T14:42:34Z</time>
      </trkpt>
      <trkpt lat="43.59354" lon="5.51586">
        <ele>293</ele>
        <time>2011-03-17T14:42:43Z</time>
      </trkpt>
      <trkpt lat="43.59343" lon="5.5155">
        <ele>294</ele>
        <time>2011-03-17T14:42:52Z</time>
      </trkpt>
      <trkpt lat="43.5933" lon="5.51513">
        <ele>294</ele>
        <time>2011-03-17T14:43:01Z</time>
      </trkpt>
      <trkpt lat="43.59311" lon="5.51489">
        <ele>294</ele>
        <time>2011-03-17T14:43:09Z</time>
      </trkpt>
      <trkpt lat="43.59287" lon="5.51466">
        <ele>294</ele>
        <time>2011-03-17T14:43:18Z</time>
      </trkpt>
      <trkpt lat="43.59272" lon="5.51434">
        <ele>294</ele>
        <time>2011-03-17T14:43:27Z</time>
      </trkpt>
      <trkpt lat="43.59264" lon="5.51401">
        <ele>294</ele>
        <time>2011-03-17T14:43:35Z</time>
      </trkpt>
      <trkpt lat="43.59255" lon="5.51364">
        <ele>294</ele>
        <time>2011-03-17T14:43:44Z</time>
      </trkpt>
      <trkpt lat="43.59275" lon="5.51333">
        <ele>296</ele>
        <time>2011-03-17T14:43:59Z</time>
      </trkpt>
      <trkpt lat="43.59264" lon="5.51313">
        <ele>298</ele>
        <time>2011-03-17T14:44:07Z</time>
      </trkpt>
      <trkpt lat="43.59261" lon="5.51286">
        <ele>298</ele>
        <time>2011-03-17T14:44:16Z</time>
      </trkpt>
      <trkpt lat="43.5925" lon="5.5126">
        <ele>300</ele>
        <time>2011-03-17T14:44:25Z</time>
      </trkpt>
      <trkpt lat="43.59235" lon="5.51235">
        <ele>302</ele>
        <time>2011-03-17T14:44:34Z</time>
      </trkpt>
      <trkpt lat="43.59223" lon="5.51213">
        <ele>304</ele>
        <time>2011-03-17T14:44:42Z</time>
      </trkpt>
      <trkpt lat="43.59206" lon="5.51184">
        <ele>304</ele>
        <time>2011-03-17T14:44:51Z</time>
      </trkpt>
      <trkpt lat="43.59194" lon="5.51156">
        <ele>306</ele>
        <time>2011-03-17T14:45:00Z</time>
      </trkpt>
      <trkpt lat="43.59182" lon="5.51137">
        <ele>307</ele>
        <time>2011-03-17T14:45:08Z</time>
      </trkpt>
      <trkpt lat="43.5917" lon="5.51109">
        <ele>308</ele>
        <time>2011-03-17T14:45:17Z</time>
      </trkpt>
      <trkpt lat="43.59149" lon="5.51083">
        <ele>308</ele>
        <time>2011-03-17T14:45:26Z</time>
      </trkpt>
      <trkpt lat="43.5913" lon="5.51059">
        <ele>308</ele>
        <time>2011-03-17T14:45:34Z</time>
      </trkpt>
      <trkpt lat="43.59107" lon="5.5103">
        <ele>308</ele>
        <time>2011-03-17T14:45:43Z</time>
      </trkpt>
      <trkpt lat="43.59083" lon="5.51002">
        <ele>308</ele>
        <time>2011-03-17T14:45:52Z</time>
      </trkpt>
      <trkpt lat="43.5906" lon="5.50979">
        <ele>310</ele>
        <time>2011-03-17T14:46:00Z</time>
      </trkpt>
      <trkpt lat="43.59027" lon="5.50955">
        <ele>310</ele>
        <time>2011-03-17T14:46:09Z</time>
      </trkpt>
      <trkpt lat="43.58996" lon="5.50925">
        <ele>310</ele>
        <time>2011-03-17T14:46:18Z</time>
      </trkpt>
      <trkpt lat="43.58966" lon="5.50898">
        <ele>310</ele>
        <time>2011-03-17T14:46:27Z</time>
      </trkpt>
      <trkpt lat="43.58958" lon="5.5088">
        <ele>312</ele>
        <time>2011-03-17T14:46:35Z</time>
      </trkpt>
      <trkpt lat="43.58959" lon="5.50864">
        <ele>312</ele>
        <time>2011-03-17T14:46:44Z</time>
      </trkpt>
      <trkpt lat="43.58965" lon="5.50848">
        <ele>314</ele>
        <time>2011-03-17T14:46:54Z</time>
      </trkpt>
      <trkpt lat="43.58971" lon="5.50835">
        <ele>315</ele>
        <time>2011-03-17T14:47:02Z</time>
      </trkpt>
      <trkpt lat="43.58981" lon="5.5082">
        <ele>316</ele>
        <time>2011-03-17T14:47:12Z</time>
      </trkpt>
      <trkpt lat="43.58996" lon="5.50803">
        <ele>318</ele>
        <time>2011-03-17T14:47:26Z</time>
      </trkpt>
      <trkpt lat="43.59007" lon="5.50788">
        <ele>320</ele>
        <time>2011-03-17T14:47:37Z</time>
      </trkpt>
      <trkpt lat="43.59019" lon="5.50775">
        <ele>322</ele>
        <time>2011-03-17T14:47:47Z</time>
      </trkpt>
      <trkpt lat="43.59031" lon="5.50765">
        <ele>323</ele>
        <time>2011-03-17T14:47:56Z</time>
      </trkpt>
      <trkpt lat="43.59043" lon="5.50753">
        <ele>325</ele>
        <time>2011-03-17T14:48:05Z</time>
      </trkpt>
      <trkpt lat="43.59053" lon="5.50745">
        <ele>327</ele>
        <time>2011-03-17T14:48:13Z</time>
      </trkpt>
      <trkpt lat="43.59064" lon="5.50731">
        <ele>328</ele>
        <time>2011-03-17T14:48:22Z</time>
      </trkpt>
      <trkpt lat="43.59068" lon="5.50712">
        <ele>329</ele>
        <time>2011-03-17T14:48:31Z</time>
      </trkpt>
      <trkpt lat="43.59069" lon="5.50693">
        <ele>331</ele>
        <time>2011-03-17T14:48:39Z</time>
      </trkpt>
      <trkpt lat="43.59072" lon="5.50671">
        <ele>333</ele>
        <time>2011-03-17T14:48:48Z</time>
      </trkpt>
      <trkpt lat="43.5908" lon="5.50651">
        <ele>334</ele>
        <time>2011-03-17T14:48:57Z</time>
      </trkpt>
      <trkpt lat="43.59093" lon="5.50641">
        <ele>335</ele>
        <time>2011-03-17T14:49:05Z</time>
      </trkpt>
      <trkpt lat="43.59109" lon="5.50642">
        <ele>339</ele>
        <time>2011-03-17T14:49:14Z</time>
      </trkpt>
      <trkpt lat="43.59123" lon="5.50642">
        <ele>341</ele>
        <time>2011-03-17T14:49:23Z</time>
      </trkpt>
      <trkpt lat="43.59134" lon="5.50633">
        <ele>343</ele>
        <time>2011-03-17T14:49:31Z</time>
      </trkpt>
      <trkpt lat="43.59144" lon="5.50642">
        <ele>345</ele>
        <time>2011-03-17T14:49:40Z</time>
      </trkpt>
      <trkpt lat="43.59137" lon="5.50664">
        <ele>348</ele>
        <time>2011-03-17T14:49:49Z</time>
      </trkpt>
      <trkpt lat="43.59133" lon="5.50689">
        <ele>350</ele>
        <time>2011-03-17T14:49:58Z</time>
      </trkpt>
      <trkpt lat="43.59144" lon="5.50711">
        <ele>351</ele>
        <time>2011-03-17T14:50:06Z</time>
      </trkpt>
      <trkpt lat="43.59177" lon="5.50729">
        <ele>351</ele>
        <time>2011-03-17T14:50:15Z</time>
      </trkpt>
      <trkpt lat="43.59224" lon="5.5075">
        <ele>351</ele>
        <time>2011-03-17T14:50:24Z</time>
      </trkpt>
      <trkpt lat="43.59243" lon="5.50767">
        <ele>350</ele>
        <time>2011-03-17T14:50:32Z</time>
      </trkpt>
      <trkpt lat="43.59263" lon="5.50783">
        <ele>350</ele>
        <time>2011-03-17T14:50:41Z</time>
      </trkpt>
      <trkpt lat="43.59281" lon="5.50789">
        <ele>354</ele>
        <time>2011-03-17T14:50:50Z</time>
      </trkpt>
      <trkpt lat="43.59298" lon="5.50809">
        <ele>354</ele>
        <time>2011-03-17T14:50:58Z</time>
      </trkpt>
      <trkpt lat="43.59327" lon="5.50828">
        <ele>354</ele>
        <time>2011-03-17T14:51:07Z</time>
      </trkpt>
      <trkpt lat="43.59342" lon="5.50855">
        <ele>352</ele>
        <time>2011-03-17T14:51:16Z</time>
      </trkpt>
      <trkpt lat="43.59333" lon="5.50892">
        <ele>345</ele>
        <time>2011-03-17T14:51:25Z</time>
      </trkpt>
      <trkpt lat="43.59317" lon="5.50964">
        <ele>340</ele>
        <time>2011-03-17T14:51:33Z</time>
      </trkpt>
      <trkpt lat="43.59325" lon="5.50997">
        <ele>340</ele>
        <time>2011-03-17T14:51:42Z</time>
      </trkpt>
      <trkpt lat="43.59342" lon="5.51003">
        <ele>340</ele>
        <time>2011-03-17T14:51:51Z</time>
      </trkpt>
      <trkpt lat="43.59362" lon="5.50995">
        <ele>340</ele>
        <time>2011-03-17T14:51:59Z</time>
      </trkpt>
      <trkpt lat="43.59383" lon="5.50971">
        <ele>340</ele>
        <time>2011-03-17T14:52:08Z</time>
      </trkpt>
      <trkpt lat="43.59408" lon="5.50949">
        <ele>340</ele>
        <time>2011-03-17T14:52:17Z</time>
      </trkpt>
      <trkpt lat="43.59434" lon="5.50907">
        <ele>340</ele>
        <time>2011-03-17T14:52:25Z</time>
      </trkpt>
      <trkpt lat="43.5946" lon="5.50871">
        <ele>340</ele>
        <time>2011-03-17T14:52:34Z</time>
      </trkpt>
      <trkpt lat="43.59488" lon="5.50888">
        <ele>340</ele>
        <time>2011-03-17T14:52:43Z</time>
      </trkpt>
      <trkpt lat="43.59486" lon="5.50929">
        <ele>340</ele>
        <time>2011-03-17T14:52:52Z</time>
      </trkpt>
      <trkpt lat="43.59492" lon="5.50963">
        <ele>340</ele>
        <time>2011-03-17T14:53:00Z</time>
      </trkpt>
      <trkpt lat="43.59519" lon="5.5096">
        <ele>341</ele>
        <time>2011-03-17T14:53:09Z</time>
      </trkpt>
      <trkpt lat="43.59544" lon="5.50944">
        <ele>343</ele>
        <time>2011-03-17T14:53:18Z</time>
      </trkpt>
      <trkpt lat="43.59567" lon="5.50923">
        <ele>343</ele>
        <time>2011-03-17T14:53:26Z</time>
      </trkpt>
      <trkpt lat="43.59594" lon="5.50931">
        <ele>343</ele>
        <time>2011-03-17T14:53:35Z</time>
      </trkpt>
      <trkpt lat="43.59616" lon="5.50957">
        <ele>345</ele>
        <time>2011-03-17T14:53:44Z</time>
      </trkpt>
      <trkpt lat="43.59642" lon="5.5095">
        <ele>347</ele>
        <time>2011-03-17T14:53:52Z</time>
      </trkpt>
      <trkpt lat="43.59671" lon="5.50937">
        <ele>349</ele>
        <time>2011-03-17T14:54:01Z</time>
      </trkpt>
      <trkpt lat="43.59677" lon="5.50988">
        <ele>349</ele>
        <time>2011-03-17T14:54:10Z</time>
      </trkpt>
      <trkpt lat="43.5967" lon="5.51023">
        <ele>350</ele>
        <time>2011-03-17T14:54:18Z</time>
      </trkpt>
      <trkpt lat="43.59665" lon="5.51058">
        <ele>353</ele>
        <time>2011-03-17T14:54:27Z</time>
      </trkpt>
      <trkpt lat="43.59675" lon="5.51073">
        <ele>357</ele>
        <time>2011-03-17T14:54:36Z</time>
      </trkpt>
      <trkpt lat="43.59689" lon="5.51075">
        <ele>358</ele>
        <time>2011-03-17T14:54:46Z</time>
      </trkpt>
      <trkpt lat="43.597" lon="5.51079">
        <ele>361</ele>
        <time>2011-03-17T14:54:54Z</time>
      </trkpt>
      <trkpt lat="43.59714" lon="5.51077">
        <ele>363</ele>
        <time>2011-03-17T14:55:04Z</time>
      </trkpt>
      <trkpt lat="43.59727" lon="5.51066">
        <ele>364</ele>
        <time>2011-03-17T14:55:15Z</time>
      </trkpt>
      <trkpt lat="43.59737" lon="5.51052">
        <ele>365</ele>
        <time>2011-03-17T14:55:25Z</time>
      </trkpt>
      <trkpt lat="43.59749" lon="5.51034">
        <ele>365</ele>
        <time>2011-03-17T14:55:34Z</time>
      </trkpt>
      <trkpt lat="43.59763" lon="5.51014">
        <ele>365</ele>
        <time>2011-03-17T14:55:43Z</time>
      </trkpt>
      <trkpt lat="43.59775" lon="5.50997">
        <ele>365</ele>
        <time>2011-03-17T14:55:51Z</time>
      </trkpt>
      <trkpt lat="43.5979" lon="5.50973">
        <ele>365</ele>
        <time>2011-03-17T14:56:00Z</time>
      </trkpt>
      <trkpt lat="43.59804" lon="5.5095">
        <ele>366</ele>
        <time>2011-03-17T14:56:09Z</time>
      </trkpt>
      <trkpt lat="43.59824" lon="5.5093">
        <ele>369</ele>
        <time>2011-03-17T14:56:18Z</time>
      </trkpt>
      <trkpt lat="43.5984" lon="5.5091">
        <ele>374</ele>
        <time>2011-03-17T14:56:26Z</time>
      </trkpt>
      <trkpt lat="43.59856" lon="5.50887">
        <ele>375</ele>
        <time>2011-03-17T14:56:35Z</time>
      </trkpt>
      <trkpt lat="43.59866" lon="5.50857">
        <ele>377</ele>
        <time>2011-03-17T14:56:44Z</time>
      </trkpt>
      <trkpt lat="43.59872" lon="5.50828">
        <ele>377</ele>
        <time>2011-03-17T14:56:52Z</time>
      </trkpt>
      <trkpt lat="43.59868" lon="5.50784">
        <ele>378</ele>
        <time>2011-03-17T14:57:01Z</time>
      </trkpt>
      <trkpt lat="43.59863" lon="5.50744">
        <ele>378</ele>
        <time>2011-03-17T14:57:10Z</time>
      </trkpt>
      <trkpt lat="43.59861" lon="5.50712">
        <ele>380</ele>
        <time>2011-03-17T14:57:18Z</time>
      </trkpt>
      <trkpt lat="43.59868" lon="5.50674">
        <ele>382</ele>
        <time>2011-03-17T14:57:27Z</time>
      </trkpt>
      <trkpt lat="43.5988" lon="5.5064">
        <ele>385</ele>
        <time>2011-03-17T14:57:36Z</time>
      </trkpt>
      <trkpt lat="43.5989" lon="5.50613">
        <ele>385</ele>
        <time>2011-03-17T14:57:44Z</time>
      </trkpt>
      <trkpt lat="43.599" lon="5.50577">
        <ele>387</ele>
        <time>2011-03-17T14:57:53Z</time>
      </trkpt>
      <trkpt lat="43.59914" lon="5.50546">
        <ele>387</ele>
        <time>2011-03-17T14:58:02Z</time>
      </trkpt>
      <trkpt lat="43.59928" lon="5.50521">
        <ele>388</ele>
        <time>2011-03-17T14:58:11Z</time>
      </trkpt>
      <trkpt lat="43.59936" lon="5.50493">
        <ele>392</ele>
        <time>2011-03-17T14:58:19Z</time>
      </trkpt>
      <trkpt lat="43.59941" lon="5.50459">
        <ele>393</ele>
        <time>2011-03-17T14:58:28Z</time>
      </trkpt>
      <trkpt lat="43.59932" lon="5.50421">
        <ele>396</ele>
        <time>2011-03-17T14:58:37Z</time>
      </trkpt>
      <trkpt lat="43.59912" lon="5.50383">
        <ele>398</ele>
        <time>2011-03-17T14:58:45Z</time>
      </trkpt>
      <trkpt lat="43.59909" lon="5.50339">
        <ele>398</ele>
        <time>2011-03-17T14:58:54Z</time>
      </trkpt>
      <trkpt lat="43.59922" lon="5.50299">
        <ele>398</ele>
        <time>2011-03-17T14:59:03Z</time>
      </trkpt>
      <trkpt lat="43.59924" lon="5.50262">
        <ele>399</ele>
        <time>2011-03-17T14:59:11Z</time>
      </trkpt>
      <trkpt lat="43.59911" lon="5.50233">
        <ele>403</ele>
        <time>2011-03-17T14:59:20Z</time>
      </trkpt>
      <trkpt lat="43.59888" lon="5.50223">
        <ele>405</ele>
        <time>2011-03-17T14:59:29Z</time>
      </trkpt>
      <trkpt lat="43.59856" lon="5.50229">
        <ele>406</ele>
        <time>2011-03-17T14:59:38Z</time>
      </trkpt>
      <trkpt lat="43.59807" lon="5.50197">
        <ele>406</ele>
        <time>2011-03-17T14:59:46Z</time>
      </trkpt>
      <trkpt lat="43.59769" lon="5.50112">
        <ele>403</ele>
        <time>2011-03-17T14:59:55Z</time>
      </trkpt>
      <trkpt lat="43.59749" lon="5.50033">
        <ele>402</ele>
        <time>2011-03-17T15:00:04Z</time>
      </trkpt>
      <trkpt lat="43.59739" lon="5.49955">
        <ele>399</ele>
        <time>2011-03-17T15:00:12Z</time>
      </trkpt>
      <trkpt lat="43.59736" lon="5.49876">
        <ele>397</ele>
        <time>2011-03-17T15:00:21Z</time>
      </trkpt>
      <trkpt lat="43.59744" lon="5.49819">
        <ele>396</ele>
        <time>2011-03-17T15:00:30Z</time>
      </trkpt>
      <trkpt lat="43.5974" lon="5.49789">
        <ele>395</ele>
        <time>2011-03-17T15:00:38Z</time>
      </trkpt>
      <trkpt lat="43.5972" lon="5.49781">
        <ele>395</ele>
        <time>2011-03-17T15:00:47Z</time>
      </trkpt>
      <trkpt lat="43.59679" lon="5.49787">
        <ele>396</ele>
        <time>2011-03-17T15:01:26Z</time>
      </trkpt>
    </trkseg>
  </trk>
</gpx>